Wetterdaten: Sonntag, 22.02.2009
Datum Zeit Temp. Innen Temp. Aussen Feuchte Inne Feuchte Auss Luftdruck Regen ab 0,1 Wind
22.02.2009 00:00 16,6 C 5,4 C 45 % 84 % 1026,5 hPa 0,0 l/m 0,0 km/h (0 Bft)
22.02.2009 00:02 16,6 C 5,4 C 45 % 84 % 1026,5 hPa 0,0 l/m 0,0 km/h (0 Bft)
22.02.2009 00:04 16,6 C 5,4 C 45 % 84 % 1027,5 hPa 0,0 l/m 0,0 km/h (0 Bft)
22.02.2009 00:06 16,6 C 5,4 C 45 % 84 % 1027,5 hPa 0,0 l/m 0,0 km/h (0 Bft)
22.02.2009 00:08 16,6 C 5,4 C 45 % 84 % 1027,5 hPa 0,0 l/m 0,0 km/h (0 Bft)
22.02.2009 00:10 16,6 C 5,4 C 45 % 85 % 1027,5 hPa 0,0 l/m 0,0 km/h (0 Bft)
22.02.2009 00:12 16,6 C 5,4 C 45 % 85 % 1027,5 hPa 0,0 l/m 0,0 km/h (0 Bft)
22.02.2009 00:14 16,6 C 5,4 C 45 % 85 % 1026,5 hPa 0,0 l/m 0,0 km/h (0 Bft)
22.02.2009 00:16 16,6 C 5,4 C 45 % 85 % 1026,5 hPa 0,0 l/m 0,0 km/h (0 Bft)
22.02.2009 00:18 16,6 C 5,4 C 45 % 85 % 1026,5 hPa 0,0 l/m 0,0 km/h (0 Bft)
22.02.2009 00:20 16,6 C 5,4 C 45 % 85 % 1026,5 hPa 0,0 l/m 0,0 km/h (0 Bft)
22.02.2009 00:22 16,6 C 5,4 C 45 % 85 % 1026,5 hPa 0,0 l/m 0,0 km/h (0 Bft)
22.02.2009 00:24 16,6 C 5,4 C 45 % 85 % 1026,5 hPa 0,0 l/m 0,0 km/h (0 Bft)
22.02.2009 00:26 16,6 C 5,4 C 45 % 85 % 1026,5 hPa 0,0 l/m 0,0 km/h (0 Bft)
22.02.2009 00:28 16,6 C 5,4 C 45 % 85 % 1026,5 hPa 0,0 l/m 0,0 km/h (0 Bft)
22.02.2009 00:30 16,6 C 5,4 C 45 % 85 % 1026,5 hPa 0,0 l/m 0,0 km/h (0 Bft)
22.02.2009 00:32 16,6 C 5,4 C 45 % 85 % 1026,5 hPa 0,0 l/m 0,0 km/h (0 Bft)
22.02.2009 00:34 16,6 C 5,5 C 45 % 85 % 1026,5 hPa 0,0 l/m 0,0 km/h (0 Bft)
22.02.2009 00:36 16,6 C 5,4 C 45 % 85 % 1026,5 hPa 0,0 l/m 0,0 km/h (0 Bft)
22.02.2009 00:38 16,5 C 5,4 C 45 % 85 % 1026,5 hPa 0,0 l/m 0,0 km/h (0 Bft)
22.02.2009 00:40 16,5 C 5,5 C 45 % 85 % 1026,5 hPa 0,0 l/m 0,0 km/h (0 Bft)
22.02.2009 00:42 16,5 C 5,4 C 45 % 85 % 1026,5 hPa 0,0 l/m 0,0 km/h (0 Bft)
22.02.2009 00:44 16,5 C 5,4 C 45 % 85 % 1026,5 hPa 0,0 l/m 0,0 km/h (0 Bft)
22.02.2009 00:46 16,5 C 5,5 C 45 % 85 % 1026,5 hPa 0,0 l/m 0,0 km/h (0 Bft)
22.02.2009 00:48 16,5 C 5,5 C 45 % 85 % 1026,5 hPa 0,0 l/m 0,0 km/h (0 Bft)
22.02.2009 00:50 16,5 C 5,4 C 45 % 85 % 1026,5 hPa 0,0 l/m 0,0 km/h (0 Bft)
22.02.2009 00:52 16,5 C 5,4 C 45 % 85 % 1026,5 hPa 0,0 l/m 0,0 km/h (0 Bft)
22.02.2009 00:54 16,5 C 5,4 C 45 % 85 % 1026,5 hPa 0,0 l/m 0,0 km/h (0 Bft)
22.02.2009 00:56 16,5 C 5,5 C 45 % 85 % 1026,5 hPa 0,0 l/m 4,8 km/h (1 Bft)
22.02.2009 00:58 16,5 C 5,5 C 45 % 85 % 1026,5 hPa 0,0 l/m 0,0 km/h (0 Bft)
22.02.2009 01:00 16,5 C 5,5 C 45 % 85 % 1026,5 hPa 0,0 l/m 0,0 km/h (0 Bft)
22.02.2009 01:02 16,5 C 5,5 C 45 % 85 % 1026,5 hPa 0,0 l/m 0,0 km/h (0 Bft)
22.02.2009 01:04 16,5 C 5,5 C 45 % 85 % 1026,5 hPa 0,0 l/m 0,0 km/h (0 Bft)
22.02.2009 01:06 16,5 C 5,5 C 45 % 85 % 1026,5 hPa 0,0 l/m 0,0 km/h (0 Bft)
22.02.2009 01:08 16,5 C 5,5 C 45 % 85 % 1026,5 hPa 0,0 l/m 0,0 km/h (0 Bft)
22.02.2009 01:10 16,5 C 5,5 C 45 % 85 % 1025,5 hPa 0,0 l/m 0,0 km/h (0 Bft)
22.02.2009 01:12 16,5 C 5,5 C 45 % 86 % 1025,5 hPa 0,0 l/m 0,0 km/h (0 Bft)
22.02.2009 01:14 16,5 C 5,5 C 45 % 86 % 1025,5 hPa 0,0 l/m 1,6 km/h (1 Bft)
22.02.2009 01:16 16,5 C 5,5 C 45 % 86 % 1025,5 hPa 0,0 l/m 0,0 km/h (0 Bft)
22.02.2009 01:18 16,5 C 5,5 C 45 % 86 % 1025,5 hPa 0,0 l/m 0,0 km/h (0 Bft)
22.02.2009 01:20 16,5 C 5,5 C 45 % 86 % 1025,5 hPa 0,0 l/m 0,0 km/h (0 Bft)
22.02.2009 01:22 16,5 C 5,5 C 45 % 86 % 1025,5 hPa 0,0 l/m 1,1 km/h (1 Bft)
22.02.2009 01:24 16,5 C 5,5 C 45 % 86 % 1025,5 hPa 0,0 l/m 0,0 km/h (0 Bft)
22.02.2009 01:26 16,5 C 5,5 C 45 % 86 % 1025,5 hPa 0,0 l/m 0,0 km/h (0 Bft)
22.02.2009 01:28 16,5 C 5,4 C 45 % 86 % 1025,5 hPa 0,0 l/m 0,0 km/h (0 Bft)
22.02.2009 01:30 16,5 C 5,4 C 45 % 86 % 1025,5 hPa 0,5 l/m 5,9 km/h (2 Bft)
22.02.2009 01:32 16,5 C 5,4 C 45 % 86 % 1025,5 hPa 0,0 l/m 0,0 km/h (0 Bft)
22.02.2009 01:34 16,5 C 5,4 C 45 % 86 % 1025,5 hPa 0,0 l/m 12,4 km/h (3 Bft)
22.02.2009 01:36 16,5 C 5,4 C 45 % 86 % 1025,5 hPa 0,0 l/m 0,0 km/h (0 Bft)
22.02.2009 01:38 16,5 C 5,4 C 45 % 86 % 1025,5 hPa 0,0 l/m 0,0 km/h (0 Bft)
22.02.2009 01:40 16,5 C 5,4 C 45 % 86 % 1025,5 hPa 0,0 l/m 0,0 km/h (0 Bft)
22.02.2009 01:42 16,5 C 5,4 C 45 % 86 % 1025,5 hPa 0,0 l/m 13,5 km/h (3 Bft)
22.02.2009 01:44 16,5 C 5,4 C 45 % 86 % 1025,5 hPa 0,0 l/m 9,7 km/h (2 Bft)
22.02.2009 01:46 16,5 C 5,4 C 45 % 86 % 1024,5 hPa 0,0 l/m 0,0 km/h (0 Bft)
22.02.2009 01:48 16,5 C 5,4 C 45 % 86 % 1024,5 hPa 0,0 l/m 0,0 km/h (0 Bft)
22.02.2009 01:50 16,5 C 5,4 C 45 % 87 % 1024,5 hPa 0,0 l/m 0,0 km/h (0 Bft)
22.02.2009 01:52 16,4 C 5,4 C 45 % 87 % 1024,5 hPa 0,0 l/m 1,1 km/h (1 Bft)
22.02.2009 01:54 16,5 C 5,4 C 45 % 87 % 1024,5 hPa 0,0 l/m 0,0 km/h (0 Bft)
22.02.2009 01:56 16,4 C 5,4 C 45 % 87 % 1024,5 hPa 0,0 l/m 0,0 km/h (0 Bft)
22.02.2009 01:58 16,4 C 5,4 C 45 % 87 % 1024,5 hPa 0,0 l/m 4,3 km/h (1 Bft)
22.02.2009 02:00 16,4 C 5,3 C 45 % 87 % 1024,5 hPa 0,0 l/m 0,7 km/h (0 Bft)
22.02.2009 02:02 16,4 C 5,3 C 45 % 87 % 1024,5 hPa 0,0 l/m 1,1 km/h (1 Bft)
22.02.2009 02:04 16,4 C 5,3 C 45 % 87 % 1024,5 hPa 0,0 l/m 0,0 km/h (0 Bft)
22.02.2009 02:06 16,4 C 5,3 C 45 % 87 % 1024,5 hPa 0,0 l/m 0,0 km/h (0 Bft)
22.02.2009 02:08 16,4 C 5,3 C 45 % 87 % 1024,5 hPa 0,0 l/m 0,0 km/h (0 Bft)
22.02.2009 02:10 16,4 C 5,3 C 45 % 87 % 1024,5 hPa 0,0 l/m 0,0 km/h (0 Bft)
22.02.2009 02:12 16,4 C 5,4 C 45 % 87 % 1024,5 hPa 0,0 l/m 0,0 km/h (0 Bft)
22.02.2009 02:14 16,4 C 5,3 C 45 % 87 % 1024,5 hPa 0,5 l/m 2,7 km/h (1 Bft)
22.02.2009 02:16 16,4 C 5,3 C 45 % 87 % 1024,5 hPa 0,0 l/m 0,5 km/h (0 Bft)
22.02.2009 02:18 16,4 C 5,3 C 45 % 87 % 1024,5 hPa 0,0 l/m 0,0 km/h (0 Bft)
22.02.2009 02:20 16,4 C 5,4 C 45 % 87 % 1024,5 hPa 0,0 l/m 0,0 km/h (0 Bft)
22.02.2009 02:22 16,4 C 5,3 C 45 % 87 % 1024,5 hPa 0,0 l/m 1,6 km/h (1 Bft)
22.02.2009 02:24 16,4 C 5,4 C 45 % 87 % 1024,5 hPa 0,0 l/m 0,0 km/h (0 Bft)
22.02.2009 02:26 16,4 C 5,4 C 46 % 87 % 1024,5 hPa 0,0 l/m 0,0 km/h (0 Bft)
22.02.2009 02:28 16,4 C 5,3 C 45 % 87 % 1024,5 hPa 0,0 l/m 0,0 km/h (0 Bft)
22.02.2009 02:30 16,4 C 5,4 C 45 % 87 % 1024,5 hPa 0,0 l/m 20,5 km/h (4 Bft)
22.02.2009 02:32 16,4 C 5,3 C 46 % 87 % 1024,5 hPa 0,0 l/m 0,0 km/h (0 Bft)
22.02.2009 02:34 16,4 C 5,4 C 46 % 87 % 1024,5 hPa 0,0 l/m 0,0 km/h (0 Bft)
22.02.2009 02:36 16,4 C 5,4 C 46 % 87 % 1024,5 hPa 0,0 l/m 5,9 km/h (2 Bft)
22.02.2009 02:38 16,4 C 5,3 C 46 % 87 % 1024,5 hPa 0,0 l/m 0,0 km/h (0 Bft)
22.02.2009 02:40 16,4 C 5,3 C 46 % 87 % 1024,5 hPa 0,0 l/m 0,0 km/h (0 Bft)
22.02.2009 02:42 16,4 C 5,3 C 46 % 87 % 1024,5 hPa 0,0 l/m 0,0 km/h (0 Bft)
22.02.2009 02:44 16,4 C 5,3 C 46 % 87 % 1024,5 hPa 0,0 l/m 0,0 km/h (0 Bft)
22.02.2009 02:46 16,4 C 5,3 C 46 % 87 % 1024,5 hPa 0,0 l/m 4,8 km/h (1 Bft)
22.02.2009 02:48 16,4 C 5,4 C 46 % 87 % 1024,5 hPa 0,0 l/m 0,0 km/h (0 Bft)
22.02.2009 02:50 16,4 C 5,4 C 46 % 88 % 1024,5 hPa 0,0 l/m 0,0 km/h (0 Bft)
22.02.2009 02:52 16,4 C 5,3 C 46 % 88 % 1024,5 hPa 0,0 l/m 0,0 km/h (0 Bft)
22.02.2009 02:54 16,4 C 5,4 C 46 % 88 % 1024,5 hPa 0,0 l/m 7,0 km/h (2 Bft)
22.02.2009 02:56 16,4 C 5,4 C 46 % 88 % 1024,5 hPa 0,0 l/m 0,0 km/h (0 Bft)
22.02.2009 02:58 16,4 C 5,4 C 46 % 88 % 1024,5 hPa 0,0 l/m 0,0 km/h (0 Bft)
22.02.2009 03:00 16,4 C 5,3 C 46 % 88 % 1024,5 hPa 0,0 l/m 9,1 km/h (2 Bft)
22.02.2009 03:02 16,4 C 5,4 C 46 % 88 % 1024,5 hPa 0,0 l/m 0,0 km/h (0 Bft)
22.02.2009 03:04 16,4 C 5,4 C 46 % 88 % 1024,5 hPa 0,0 l/m 0,0 km/h (0 Bft)
22.02.2009 03:06 16,4 C 5,3 C 46 % 88 % 1024,5 hPa 0,0 l/m 4,8 km/h (1 Bft)
22.02.2009 03:08 16,4 C 5,4 C 46 % 88 % 1024,5 hPa 0,0 l/m 0,0 km/h (0 Bft)
22.02.2009 03:10 16,4 C 5,4 C 46 % 88 % 1024,5 hPa 0,0 l/m 0,0 km/h (0 Bft)
22.02.2009 03:12 16,4 C 5,4 C 46 % 88 % 1024,5 hPa 0,0 l/m 0,0 km/h (0 Bft)
22.02.2009 03:14 16,4 C 5,4 C 46 % 88 % 1024,5 hPa 0,0 l/m 9,7 km/h (2 Bft)
22.02.2009 03:16 16,4 C 5,4 C 46 % 88 % 1024,5 hPa 0,0 l/m 0,0 km/h (0 Bft)
22.02.2009 03:18 16,4 C 5,4 C 46 % 88 % 1024,5 hPa 0,0 l/m 0,0 km/h (0 Bft)
22.02.2009 03:20 16,4 C 5,4 C 46 % 88 % 1024,5 hPa 0,0 l/m 0,0 km/h (0 Bft)
22.02.2009 03:22 16,4 C 5,4 C 46 % 88 % 1024,5 hPa 0,0 l/m 0,0 km/h (0 Bft)
22.02.2009 03:24 16,4 C 5,4 C 46 % 88 % 1024,5 hPa 0,0 l/m 0,0 km/h (0 Bft)
22.02.2009 03:26 16,4 C 5,4 C 46 % 88 % 1024,5 hPa 0,0 l/m 0,0 km/h (0 Bft)
22.02.2009 03:28 16,4 C 5,4 C 46 % 88 % 1024,5 hPa 0,0 l/m 0,0 km/h (0 Bft)
22.02.2009 03:30 16,4 C 5,4 C 46 % 88 % 1024,5 hPa 0,0 l/m 16,7 km/h (3 Bft)
22.02.2009 03:32 16,4 C 5,4 C 46 % 87 % 1024,5 hPa 0,0 l/m 11,8 km/h (2 Bft)
22.02.2009 03:34 16,4 C 5,4 C 46 % 87 % 1024,5 hPa 0,0 l/m 0,0 km/h (0 Bft)
22.02.2009 03:36 16,4 C 5,4 C 46 % 87 % 1024,5 hPa 0,0 l/m 1,6 km/h (1 Bft)
22.02.2009 03:38 16,4 C 5,4 C 46 % 87 % 1024,5 hPa 0,0 l/m 0,0 km/h (0 Bft)
22.02.2009 03:40 16,4 C 5,4 C 46 % 87 % 1024,5 hPa 0,0 l/m 0,0 km/h (0 Bft)
22.02.2009 03:42 16,4 C 5,4 C 46 % 87 % 1024,5 hPa 0,0 l/m 5,4 km/h (1 Bft)
22.02.2009 03:44 16,4 C 5,4 C 46 % 87 % 1024,5 hPa 0,0 l/m 0,0 km/h (0 Bft)
22.02.2009 03:46 16,4 C 5,4 C 46 % 87 % 1024,5 hPa 0,0 l/m 0,0 km/h (0 Bft)
22.02.2009 03:48 16,4 C 5,4 C 46 % 87 % 1024,5 hPa 0,0 l/m 9,7 km/h (2 Bft)
22.02.2009 03:50 16,4 C 5,4 C 46 % 87 % 1024,5 hPa 0,0 l/m 0,0 km/h (0 Bft)
22.02.2009 03:52 16,4 C 5,5 C 46 % 87 % 1024,5 hPa 0,0 l/m 0,0 km/h (0 Bft)
22.02.2009 03:54 16,4 C 5,5 C 46 % 87 % 1023,5 hPa 0,0 l/m 0,0 km/h (0 Bft)
22.02.2009 03:56 16,4 C 5,5 C 46 % 87 % 1023,5 hPa 0,0 l/m 3,8 km/h (1 Bft)
22.02.2009 03:58 16,4 C 5,5 C 46 % 87 % 1023,5 hPa 0,0 l/m 8,6 km/h (2 Bft)
22.02.2009 04:00 16,4 C 5,5 C 46 % 87 % 1023,5 hPa 0,0 l/m 0,5 km/h (0 Bft)
22.02.2009 04:02 16,4 C 5,5 C 46 % 87 % 1023,5 hPa 0,0 l/m 0,0 km/h (0 Bft)
22.02.2009 04:04 16,4 C 5,5 C 46 % 87 % 1023,5 hPa 0,0 l/m 0,0 km/h (0 Bft)
22.02.2009 04:06 16,4 C 5,5 C 46 % 87 % 1023,5 hPa 0,0 l/m 8,1 km/h (2 Bft)
22.02.2009 04:08 16,4 C 5,5 C 46 % 87 % 1023,5 hPa 0,0 l/m 1,6 km/h (1 Bft)
22.02.2009 04:10 16,4 C 5,5 C 46 % 87 % 1023,5 hPa 0,0 l/m 1,6 km/h (1 Bft)
22.02.2009 04:12 16,4 C 5,5 C 46 % 87 % 1023,5 hPa 0,0 l/m 6,5 km/h (2 Bft)
22.02.2009 04:14 16,4 C 5,6 C 46 % 87 % 1023,5 hPa 0,0 l/m 5,9 km/h (2 Bft)
22.02.2009 04:16 16,4 C 5,6 C 46 % 87 % 1023,5 hPa 0,0 l/m 0,5 km/h (0 Bft)
22.02.2009 04:18 16,4 C 5,5 C 46 % 87 % 1023,5 hPa 0,0 l/m 0,0 km/h (0 Bft)
22.02.2009 04:20 16,4 C 5,6 C 46 % 87 % 1023,5 hPa 0,0 l/m 0,0 km/h (0 Bft)
22.02.2009 04:22 16,4 C 5,6 C 46 % 87 % 1023,5 hPa 0,0 l/m 3,2 km/h (1 Bft)
22.02.2009 04:24 16,4 C 5,6 C 46 % 87 % 1023,5 hPa 0,0 l/m 5,9 km/h (2 Bft)
22.02.2009 04:26 16,4 C 5,6 C 46 % 87 % 1023,5 hPa 0,0 l/m 16,7 km/h (3 Bft)
22.02.2009 04:28 16,4 C 5,6 C 46 % 87 % 1023,5 hPa 0,0 l/m 2,7 km/h (1 Bft)
22.02.2009 04:30 16,4 C 5,6 C 46 % 87 % 1023,5 hPa 0,0 l/m 8,1 km/h (2 Bft)
22.02.2009 04:32 16,4 C 5,6 C 46 % 87 % 1023,5 hPa 0,0 l/m 0,0 km/h (0 Bft)
22.02.2009 04:34 16,4 C 5,6 C 46 % 87 % 1023,5 hPa 0,0 l/m 0,0 km/h (0 Bft)
22.02.2009 04:36 16,4 C 5,6 C 46 % 87 % 1023,5 hPa 0,0 l/m 7,5 km/h (2 Bft)
22.02.2009 04:38 16,4 C 5,6 C 46 % 87 % 1023,5 hPa 0,0 l/m 4,3 km/h (1 Bft)
22.02.2009 04:40 16,4 C 5,6 C 46 % 87 % 1023,5 hPa 0,0 l/m 4,3 km/h (1 Bft)
22.02.2009 04:42 16,4 C 5,6 C 46 % 87 % 1023,5 hPa 0,0 l/m 0,0 km/h (0 Bft)
22.02.2009 04:44 16,4 C 5,6 C 46 % 87 % 1023,5 hPa 0,0 l/m 0,0 km/h (0 Bft)
22.02.2009 04:46 16,3 C 5,6 C 46 % 87 % 1023,5 hPa 0,0 l/m 0,0 km/h (0 Bft)
22.02.2009 04:48 16,4 C 5,6 C 46 % 86 % 1023,5 hPa 0,0 l/m 0,0 km/h (0 Bft)
22.02.2009 04:50 16,4 C 5,6 C 46 % 86 % 1023,5 hPa 0,0 l/m 11,3 km/h (2 Bft)
22.02.2009 04:52 16,4 C 5,6 C 46 % 86 % 1023,5 hPa 0,0 l/m 4,3 km/h (1 Bft)
22.02.2009 04:54 16,4 C 5,6 C 46 % 86 % 1023,5 hPa 0,0 l/m 0,0 km/h (0 Bft)
22.02.2009 04:56 16,3 C 5,6 C 46 % 86 % 1023,5 hPa 0,0 l/m 0,0 km/h (0 Bft)
22.02.2009 04:58 16,4 C 5,5 C 46 % 86 % 1023,5 hPa 0,0 l/m 5,4 km/h (1 Bft)
22.02.2009 05:00 16,4 C 5,6 C 46 % 86 % 1023,5 hPa 0,0 l/m 0,0 km/h (0 Bft)
22.02.2009 05:02 16,3 C 5,5 C 46 % 86 % 1023,5 hPa 0,0 l/m 7,0 km/h (2 Bft)
22.02.2009 05:04 16,3 C 5,5 C 46 % 86 % 1023,5 hPa 0,0 l/m 0,0 km/h (0 Bft)
22.02.2009 05:06 16,3 C 5,5 C 46 % 86 % 1023,5 hPa 0,0 l/m 0,0 km/h (0 Bft)
22.02.2009 05:08 16,3 C 5,5 C 46 % 86 % 1023,5 hPa 0,0 l/m 0,0 km/h (0 Bft)
22.02.2009 05:10 16,4 C 5,5 C 46 % 86 % 1023,5 hPa 0,0 l/m 0,0 km/h (0 Bft)
22.02.2009 05:12 16,3 C 5,5 C 46 % 86 % 1023,5 hPa 0,0 l/m 1,6 km/h (1 Bft)
22.02.2009 05:14 16,4 C 5,5 C 46 % 86 % 1023,5 hPa 0,0 l/m 0,0 km/h (0 Bft)
22.02.2009 05:16 16,3 C 5,5 C 46 % 86 % 1023,5 hPa 0,0 l/m 16,7 km/h (3 Bft)
22.02.2009 05:18 16,3 C 5,5 C 46 % 86 % 1023,5 hPa 0,0 l/m 3,8 km/h (1 Bft)
22.02.2009 05:20 16,3 C 5,5 C 46 % 87 % 1023,5 hPa 0,0 l/m 0,0 km/h (0 Bft)
22.02.2009 05:22 16,3 C 5,5 C 46 % 87 % 1023,5 hPa 0,0 l/m 0,0 km/h (0 Bft)
22.02.2009 05:24 16,3 C 5,5 C 46 % 87 % 1023,5 hPa 0,0 l/m 1,6 km/h (1 Bft)
22.02.2009 05:26 16,4 C 5,6 C 46 % 87 % 1023,5 hPa 0,0 l/m 0,0 km/h (0 Bft)
22.02.2009 05:28 16,3 C 5,5 C 46 % 87 % 1023,5 hPa 0,0 l/m 0,0 km/h (0 Bft)
22.02.2009 05:30 16,3 C 5,5 C 46 % 87 % 1023,5 hPa 0,0 l/m 0,0 km/h (0 Bft)
22.02.2009 05:32 16,3 C 5,6 C 46 % 87 % 1023,5 hPa 0,0 l/m 0,0 km/h (0 Bft)
22.02.2009 05:34 16,3 C 5,6 C 46 % 87 % 1023,5 hPa 0,0 l/m 0,0 km/h (0 Bft)
22.02.2009 05:36 16,3 C 5,6 C 46 % 86 % 1023,5 hPa 0,0 l/m 2,7 km/h (1 Bft)
22.02.2009 05:38 16,3 C 5,6 C 46 % 87 % 1023,5 hPa 0,0 l/m 5,4 km/h (1 Bft)
22.02.2009 05:40 16,3 C 5,6 C 46 % 86 % 1023,5 hPa 0,0 l/m 0,0 km/h (0 Bft)
22.02.2009 05:42 16,3 C 5,6 C 46 % 86 % 1023,5 hPa 0,0 l/m 0,0 km/h (0 Bft)
22.02.2009 05:44 16,3 C 5,6 C 46 % 87 % 1023,5 hPa 0,0 l/m 0,0 km/h (0 Bft)
22.02.2009 05:46 16,3 C 5,6 C 46 % 86 % 1023,5 hPa 0,0 l/m 1,6 km/h (1 Bft)
22.02.2009 05:48 16,3 C 5,6 C 46 % 86 % 1023,5 hPa 0,0 l/m 0,0 km/h (0 Bft)
22.02.2009 05:50 16,3 C 5,6 C 46 % 86 % 1023,5 hPa 0,0 l/m 0,0 km/h (0 Bft)
22.02.2009 05:52 16,3 C 5,6 C 46 % 86 % 1023,5 hPa 0,0 l/m 0,0 km/h (0 Bft)
22.02.2009 05:54 16,3 C 5,6 C 46 % 86 % 1023,5 hPa 0,0 l/m 0,0 km/h (0 Bft)
22.02.2009 05:56 16,3 C 5,6 C 46 % 86 % 1023,5 hPa 0,0 l/m 0,0 km/h (0 Bft)
22.02.2009 05:58 16,3 C 5,6 C 46 % 86 % 1023,5 hPa 0,0 l/m 4,8 km/h (1 Bft)
22.02.2009 06:00 16,3 C 5,6 C 46 % 86 % 1023,5 hPa 0,0 l/m 0,5 km/h (0 Bft)
22.02.2009 06:02 16,3 C 5,6 C 46 % 86 % 1023,5 hPa 0,0 l/m 0,0 km/h (0 Bft)
22.02.2009 06:04 16,3 C 5,6 C 46 % 86 % 1022,5 hPa 0,0 l/m 0,0 km/h (0 Bft)
22.02.2009 06:06 16,3 C 5,6 C 46 % 86 % 1022,5 hPa 0,0 l/m 0,0 km/h (0 Bft)
22.02.2009 06:08 16,3 C 5,6 C 46 % 86 % 1022,5 hPa 0,0 l/m 9,1 km/h (2 Bft)
22.02.2009 06:10 16,3 C 5,6 C 46 % 86 % 1022,5 hPa 0,0 l/m 0,0 km/h (0 Bft)
22.02.2009 06:12 16,3 C 5,6 C 46 % 86 % 1022,5 hPa 0,0 l/m 0,0 km/h (0 Bft)
22.02.2009 06:14 16,3 C 5,6 C 46 % 86 % 1022,5 hPa 0,0 l/m 0,0 km/h (0 Bft)
22.02.2009 06:16 16,3 C 5,6 C 46 % 86 % 1022,5 hPa 0,0 l/m 0,0 km/h (0 Bft)
22.02.2009 06:18 16,3 C 5,6 C 46 % 86 % 1022,5 hPa 0,0 l/m 0,0 km/h (0 Bft)
22.02.2009 06:20 16,3 C 5,6 C 46 % 86 % 1022,5 hPa 0,0 l/m 0,0 km/h (0 Bft)
22.02.2009 06:22 16,3 C 5,6 C 46 % 86 % 1022,5 hPa 0,0 l/m 0,0 km/h (0 Bft)
22.02.2009 06:24 16,4 C 5,6 C 46 % 86 % 1022,5 hPa 0,0 l/m 0,0 km/h (0 Bft)
22.02.2009 06:26 16,4 C 5,6 C 46 % 86 % 1022,5 hPa 0,0 l/m 0,0 km/h (0 Bft)
22.02.2009 06:28 16,4 C 5,6 C 46 % 86 % 1022,5 hPa 0,0 l/m 0,0 km/h (0 Bft)
22.02.2009 06:30 16,4 C 5,7 C 46 % 86 % 1022,5 hPa 0,0 l/m 0,0 km/h (0 Bft)
22.02.2009 06:32 16,4 C 5,7 C 46 % 86 % 1022,5 hPa 0,0 l/m 0,0 km/h (0 Bft)
22.02.2009 06:34 16,4 C 5,7 C 46 % 86 % 1022,5 hPa 0,0 l/m 0,0 km/h (0 Bft)
22.02.2009 06:36 16,4 C 5,7 C 46 % 86 % 1022,5 hPa 0,0 l/m 0,0 km/h (0 Bft)
22.02.2009 06:38 16,4 C 5,7 C 46 % 86 % 1022,5 hPa 0,0 l/m 0,0 km/h (0 Bft)
22.02.2009 06:40 16,4 C 5,7 C 46 % 86 % 1022,5 hPa 0,0 l/m 0,0 km/h (0 Bft)
22.02.2009 06:42 16,4 C 5,7 C 46 % 86 % 1022,5 hPa 0,0 l/m 0,0 km/h (0 Bft)
22.02.2009 06:44 16,4 C 5,7 C 46 % 86 % 1022,5 hPa 0,0 l/m 1,1 km/h (1 Bft)
22.02.2009 06:46 16,5 C 5,7 C 46 % 86 % 1022,5 hPa 0,0 l/m 0,0 km/h (0 Bft)
22.02.2009 06:48 16,5 C 5,7 C 46 % 86 % 1022,5 hPa 0,0 l/m 0,0 km/h (0 Bft)
22.02.2009 06:50 16,5 C 5,7 C 46 % 86 % 1022,5 hPa 0,0 l/m 0,0 km/h (0 Bft)
22.02.2009 06:52 16,5 C 5,7 C 46 % 86 % 1022,5 hPa 0,0 l/m 0,0 km/h (0 Bft)
22.02.2009 06:54 16,5 C 5,7 C 46 % 86 % 1022,5 hPa 0,0 l/m 0,0 km/h (0 Bft)
22.02.2009 06:56 16,5 C 5,7 C 46 % 86 % 1022,5 hPa 0,0 l/m 0,0 km/h (0 Bft)
22.02.2009 06:58 16,5 C 5,8 C 46 % 86 % 1022,5 hPa 0,0 l/m 0,0 km/h (0 Bft)
22.02.2009 07:00 16,5 C 5,8 C 46 % 86 % 1022,5 hPa 0,0 l/m 0,0 km/h (0 Bft)
22.02.2009 07:02 16,5 C 5,8 C 46 % 86 % 1022,5 hPa 0,0 l/m 0,0 km/h (0 Bft)
22.02.2009 07:04 16,5 C 5,7 C 46 % 86 % 1022,5 hPa 0,0 l/m 0,0 km/h (0 Bft)
22.02.2009 07:06 16,6 C 5,6 C 46 % 86 % 1022,5 hPa 0,0 l/m 1,1 km/h (1 Bft)
22.02.2009 07:08 16,5 C 5,7 C 46 % 86 % 1022,5 hPa 0,0 l/m 0,0 km/h (0 Bft)
22.02.2009 07:10 16,6 C 5,8 C 46 % 86 % 1022,5 hPa 0,0 l/m 0,0 km/h (0 Bft)
22.02.2009 07:12 16,5 C 5,8 C 46 % 86 % 1022,5 hPa 0,0 l/m 0,0 km/h (0 Bft)
22.02.2009 07:14 16,6 C 5,8 C 46 % 86 % 1022,5 hPa 0,0 l/m 0,0 km/h (0 Bft)
22.02.2009 07:16 16,6 C 5,7 C 46 % 86 % 1022,5 hPa 0,0 l/m 0,0 km/h (0 Bft)
22.02.2009 07:18 16,6 C 5,8 C 46 % 86 % 1022,5 hPa 0,0 l/m 0,0 km/h (0 Bft)
22.02.2009 07:20 16,6 C 5,7 C 46 % 86 % 1022,5 hPa 0,0 l/m 0,0 km/h (0 Bft)
22.02.2009 07:22 16,6 C 5,8 C 46 % 86 % 1022,5 hPa 0,0 l/m 0,0 km/h (0 Bft)
22.02.2009 07:24 16,6 C 5,8 C 46 % 86 % 1022,5 hPa 0,0 l/m 2,2 km/h (1 Bft)
22.02.2009 07:26 16,6 C 5,8 C 46 % 86 % 1022,5 hPa 0,0 l/m 0,0 km/h (0 Bft)
22.02.2009 07:28 16,6 C 5,8 C 46 % 86 % 1022,5 hPa 0,0 l/m 0,0 km/h (0 Bft)
22.02.2009 07:30 16,6 C 5,7 C 46 % 86 % 1022,5 hPa 0,0 l/m 0,0 km/h (0 Bft)
22.02.2009 07:32 16,6 C 5,8 C 46 % 86 % 1022,5 hPa 0,0 l/m 0,0 km/h (0 Bft)
22.02.2009 07:34 16,6 C 5,8 C 46 % 86 % 1022,5 hPa 0,0 l/m 0,0 km/h (0 Bft)
22.02.2009 07:36 16,5 C 5,7 C 46 % 86 % 1022,5 hPa 0,0 l/m 0,0 km/h (0 Bft)
22.02.2009 07:38 16,6 C 5,8 C 46 % 86 % 1022,5 hPa 0,0 l/m 0,0 km/h (0 Bft)
22.02.2009 07:40 16,6 C 5,8 C 46 % 86 % 1022,5 hPa 0,0 l/m 8,6 km/h (2 Bft)
22.02.2009 07:42 16,5 C 5,8 C 46 % 86 % 1022,5 hPa 0,0 l/m 8,6 km/h (2 Bft)
22.02.2009 07:44 16,6 C 5,8 C 46 % 86 % 1022,5 hPa 0,0 l/m 0,0 km/h (0 Bft)
22.02.2009 07:46 16,5 C 5,8 C 46 % 86 % 1022,5 hPa 0,0 l/m 0,0 km/h (0 Bft)
22.02.2009 07:48 16,5 C 5,8 C 46 % 86 % 1022,5 hPa 0,0 l/m 0,0 km/h (0 Bft)
22.02.2009 07:50 16,5 C 5,8 C 46 % 86 % 1022,5 hPa 0,0 l/m 0,0 km/h (0 Bft)
22.02.2009 07:52 16,5 C 5,8 C 46 % 86 % 1022,5 hPa 0,0 l/m 0,0 km/h (0 Bft)
22.02.2009 07:54 16,5 C 5,8 C 46 % 86 % 1022,5 hPa 0,0 l/m 0,0 km/h (0 Bft)
22.02.2009 07:56 16,6 C 5,8 C 46 % 86 % 1022,5 hPa 0,0 l/m 2,2 km/h (1 Bft)
22.02.2009 07:58 16,6 C 5,8 C 46 % 86 % 1022,5 hPa 0,0 l/m 0,0 km/h (0 Bft)
22.02.2009 08:00 16,5 C 5,8 C 46 % 86 % 1022,5 hPa 0,0 l/m 11,8 km/h (2 Bft)
22.02.2009 08:02 16,5 C 5,8 C 46 % 86 % 1022,5 hPa 0,0 l/m 7,0 km/h (2 Bft)
22.02.2009 08:04 16,5 C 5,8 C 46 % 86 % 1022,5 hPa 0,0 l/m 0,0 km/h (0 Bft)
22.02.2009 08:06 16,5 C 5,8 C 46 % 86 % 1022,5 hPa 0,0 l/m 0,0 km/h (0 Bft)
22.02.2009 08:08 16,6 C 5,8 C 46 % 86 % 1022,5 hPa 0,0 l/m 0,0 km/h (0 Bft)
22.02.2009 08:10 16,6 C 5,8 C 46 % 86 % 1022,5 hPa 0,0 l/m 0,0 km/h (0 Bft)
22.02.2009 08:12 16,6 C 5,8 C 46 % 86 % 1022,5 hPa 0,0 l/m 0,0 km/h (0 Bft)
22.02.2009 08:14 16,6 C 5,8 C 46 % 86 % 1022,5 hPa 0,0 l/m 0,0 km/h (0 Bft)
22.02.2009 08:16 16,6 C 5,8 C 46 % 86 % 1022,5 hPa 0,0 l/m 0,0 km/h (0 Bft)
22.02.2009 08:18 16,5 C 5,8 C 46 % 86 % 1022,5 hPa 0,0 l/m 0,0 km/h (0 Bft)
22.02.2009 08:20 16,6 C 5,8 C 46 % 86 % 1021,5 hPa 0,0 l/m 0,0 km/h (0 Bft)
22.02.2009 08:22 16,5 C 5,8 C 46 % 86 % 1022,5 hPa 0,0 l/m 0,0 km/h (0 Bft)
22.02.2009 08:24 16,5 C 5,8 C 46 % 86 % 1021,5 hPa 0,0 l/m 0,0 km/h (0 Bft)
22.02.2009 08:26 16,5 C 5,8 C 46 % 86 % 1021,5 hPa 0,0 l/m 0,0 km/h (0 Bft)
22.02.2009 08:28 16,6 C 5,8 C 46 % 87 % 1021,5 hPa 0,0 l/m 0,0 km/h (0 Bft)
22.02.2009 08:30 16,5 C 5,8 C 46 % 86 % 1021,5 hPa 0,0 l/m 0,0 km/h (0 Bft)
22.02.2009 08:32 16,5 C 5,8 C 46 % 86 % 1021,5 hPa 0,0 l/m 0,0 km/h (0 Bft)
22.02.2009 08:34 16,5 C 5,8 C 46 % 87 % 1022,5 hPa 0,0 l/m 0,0 km/h (0 Bft)
22.02.2009 08:36 16,5 C 5,9 C 46 % 87 % 1021,5 hPa 0,0 l/m 0,0 km/h (0 Bft)
22.02.2009 08:38 16,5 C 5,9 C 46 % 87 % 1022,5 hPa 0,0 l/m 0,0 km/h (0 Bft)
22.02.2009 08:40 16,5 C 5,9 C 46 % 87 % 1022,5 hPa 0,0 l/m 0,0 km/h (0 Bft)
22.02.2009 08:42 16,5 C 5,9 C 46 % 87 % 1022,5 hPa 0,0 l/m 0,0 km/h (0 Bft)
22.02.2009 08:44 16,5 C 5,9 C 46 % 87 % 1021,5 hPa 0,0 l/m 0,0 km/h (0 Bft)
22.02.2009 08:46 16,5 C 5,9 C 46 % 87 % 1021,5 hPa 0,0 l/m 0,0 km/h (0 Bft)
22.02.2009 08:48 16,5 C 5,9 C 46 % 87 % 1021,5 hPa 0,0 l/m 6,5 km/h (2 Bft)
22.02.2009 08:50 16,5 C 5,9 C 46 % 87 % 1021,5 hPa 0,0 l/m 0,0 km/h (0 Bft)
22.02.2009 08:52 16,5 C 5,9 C 46 % 87 % 1021,5 hPa 0,0 l/m 0,0 km/h (0 Bft)
22.02.2009 08:54 16,5 C 5,9 C 46 % 87 % 1021,5 hPa 0,0 l/m 0,0 km/h (0 Bft)
22.02.2009 08:56 16,5 C 5,9 C 46 % 87 % 1021,5 hPa 0,0 l/m 5,4 km/h (1 Bft)
22.02.2009 08:58 16,5 C 5,9 C 46 % 87 % 1021,5 hPa 0,0 l/m 0,0 km/h (0 Bft)
22.02.2009 09:00 16,5 C 5,9 C 46 % 87 % 1021,5 hPa 0,0 l/m 11,8 km/h (2 Bft)
22.02.2009 09:02 16,5 C 5,9 C 46 % 87 % 1021,5 hPa 0,0 l/m 3,8 km/h (1 Bft)
22.02.2009 09:04 16,5 C 5,9 C 46 % 87 % 1021,5 hPa 0,0 l/m 2,7 km/h (1 Bft)
22.02.2009 09:06 16,5 C 5,9 C 46 % 87 % 1021,5 hPa 0,0 l/m 0,0 km/h (0 Bft)
22.02.2009 09:08 16,5 C 5,9 C 46 % 87 % 1021,5 hPa 0,0 l/m 0,0 km/h (0 Bft)
22.02.2009 09:10 16,5 C 5,9 C 46 % 87 % 1021,5 hPa 0,0 l/m 15,6 km/h (3 Bft)
22.02.2009 09:12 16,4 C 5,9 C 46 % 87 % 1021,5 hPa 0,0 l/m 15,6 km/h (3 Bft)
22.02.2009 09:14 16,5 C 6,0 C 46 % 87 % 1022,5 hPa 0,0 l/m 0,0 km/h (0 Bft)
22.02.2009 09:16 16,4 C 6,1 C 46 % 86 % 1022,5 hPa 0,0 l/m 0,0 km/h (0 Bft)
22.02.2009 09:18 16,4 C 6,1 C 46 % 87 % 1022,5 hPa 0,0 l/m 0,0 km/h (0 Bft)
22.02.2009 09:20 16,4 C 6,1 C 46 % 87 % 1022,5 hPa 0,0 l/m 3,2 km/h (1 Bft)
22.02.2009 09:22 16,4 C 6,1 C 46 % 86 % 1022,5 hPa 0,0 l/m 0,0 km/h (0 Bft)
22.02.2009 09:24 16,4 C 6,1 C 46 % 86 % 1022,5 hPa 0,0 l/m 0,0 km/h (0 Bft)
22.02.2009 09:26 16,4 C 6,1 C 46 % 86 % 1021,5 hPa 0,0 l/m 0,0 km/h (0 Bft)
22.02.2009 09:28 16,4 C 6,1 C 46 % 86 % 1021,5 hPa 0,0 l/m 0,0 km/h (0 Bft)
22.02.2009 09:30 16,4 C 6,0 C 46 % 86 % 1021,5 hPa 0,0 l/m 6,5 km/h (2 Bft)
22.02.2009 09:32 16,4 C 6,1 C 46 % 86 % 1021,5 hPa 0,0 l/m 0,5 km/h (0 Bft)
22.02.2009 09:34 16,4 C 6,1 C 46 % 86 % 1021,5 hPa 0,0 l/m 18,3 km/h (3 Bft)
22.02.2009 09:36 16,4 C 6,1 C 46 % 86 % 1021,5 hPa 0,0 l/m 8,6 km/h (2 Bft)
22.02.2009 09:38 16,4 C 6,1 C 46 % 86 % 1021,5 hPa 0,0 l/m 0,0 km/h (0 Bft)
22.02.2009 09:40 16,4 C 6,1 C 46 % 86 % 1021,5 hPa 0,0 l/m 0,0 km/h (0 Bft)
22.02.2009 09:42 16,4 C 6,1 C 46 % 86 % 1021,5 hPa 0,0 l/m 0,0 km/h (0 Bft)
22.02.2009 09:44 16,4 C 6,1 C 46 % 86 % 1021,5 hPa 0,0 l/m 0,0 km/h (0 Bft)
22.02.2009 09:46 16,4 C 6,1 C 46 % 86 % 1021,5 hPa 0,0 l/m 4,3 km/h (1 Bft)
22.02.2009 09:48 16,4 C 6,1 C 46 % 86 % 1021,5 hPa 0,0 l/m 0,0 km/h (0 Bft)
22.02.2009 09:50 16,4 C 6,2 C 46 % 86 % 1021,5 hPa 0,0 l/m 0,0 km/h (0 Bft)
22.02.2009 09:52 16,4 C 6,2 C 46 % 86 % 1021,5 hPa 0,0 l/m 0,0 km/h (0 Bft)
22.02.2009 09:54 16,4 C 6,3 C 46 % 86 % 1021,5 hPa 0,0 l/m 0,0 km/h (0 Bft)
22.02.2009 09:56 16,4 C 6,3 C 46 % 86 % 1021,5 hPa 0,0 l/m 7,5 km/h (2 Bft)
22.02.2009 09:58 16,5 C 6,3 C 46 % 86 % 1021,5 hPa 0,0 l/m 2,7 km/h (1 Bft)
22.02.2009 10:00 16,5 C 6,3 C 46 % 86 % 1021,5 hPa 0,0 l/m 9,1 km/h (2 Bft)
22.02.2009 10:02 16,5 C 6,3 C 46 % 86 % 1021,5 hPa 0,0 l/m 0,0 km/h (0 Bft)
22.02.2009 10:04 16,4 C 6,3 C 46 % 86 % 1021,5 hPa 0,0 l/m 0,0 km/h (0 Bft)
22.02.2009 10:06 16,4 C 6,3 C 46 % 86 % 1021,5 hPa 0,0 l/m 0,0 km/h (0 Bft)
22.02.2009 10:08 16,5 C 6,4 C 46 % 86 % 1021,5 hPa 0,0 l/m 0,0 km/h (0 Bft)
22.02.2009 10:10 16,4 C 6,3 C 46 % 86 % 1021,5 hPa 0,0 l/m 8,1 km/h (2 Bft)
22.02.2009 10:12 16,4 C 6,3 C 46 % 86 % 1021,5 hPa 0,0 l/m 0,0 km/h (0 Bft)
22.02.2009 10:14 16,4 C 6,3 C 46 % 86 % 1021,5 hPa 0,0 l/m 0,0 km/h (0 Bft)
22.02.2009 10:16 16,4 C 6,3 C 46 % 86 % 1021,5 hPa 0,0 l/m 0,0 km/h (0 Bft)
22.02.2009 10:18 16,4 C 6,3 C 46 % 86 % 1021,5 hPa 0,0 l/m 0,5 km/h (0 Bft)
22.02.2009 10:20 16,4 C 6,3 C 46 % 86 % 1021,5 hPa 0,0 l/m 0,0 km/h (0 Bft)
22.02.2009 10:22 16,4 C 6,3 C 46 % 86 % 1021,5 hPa 0,0 l/m 10,8 km/h (2 Bft)
22.02.2009 10:24 16,4 C 6,3 C 47 % 86 % 1021,5 hPa 0,0 l/m 14,0 km/h (3 Bft)
22.02.2009 10:26 16,4 C 6,3 C 46 % 86 % 1021,5 hPa 0,0 l/m 0,0 km/h (0 Bft)
22.02.2009 10:28 16,4 C 6,4 C 46 % 86 % 1021,5 hPa 0,0 l/m 7,0 km/h (2 Bft)
22.02.2009 10:30 16,4 C 6,3 C 47 % 86 % 1021,5 hPa 0,0 l/m 0,0 km/h (0 Bft)
22.02.2009 10:32 16,4 C 6,4 C 47 % 87 % 1021,5 hPa 0,0 l/m 4,8 km/h (1 Bft)
22.02.2009 10:34 16,4 C 6,3 C 47 % 87 % 1021,5 hPa 0,0 l/m 8,1 km/h (2 Bft)
22.02.2009 10:36 16,4 C 6,4 C 47 % 87 % 1021,5 hPa 0,0 l/m 11,8 km/h (2 Bft)
22.02.2009 10:38 16,4 C 6,4 C 47 % 87 % 1021,5 hPa 0,0 l/m 10,8 km/h (2 Bft)
22.02.2009 10:40 16,4 C 6,4 C 47 % 87 % 1021,5 hPa 0,0 l/m 7,0 km/h (2 Bft)
22.02.2009 10:42 16,4 C 6,4 C 47 % 87 % 1021,5 hPa 0,0 l/m 0,0 km/h (0 Bft)
22.02.2009 10:44 16,4 C 6,4 C 47 % 87 % 1021,5 hPa 0,0 l/m 0,0 km/h (0 Bft)
22.02.2009 10:46 16,4 C 6,4 C 47 % 87 % 1021,5 hPa 0,0 l/m 1,6 km/h (1 Bft)
22.02.2009 10:48 16,4 C 6,4 C 47 % 87 % 1021,5 hPa 0,0 l/m 3,2 km/h (1 Bft)
22.02.2009 10:50 16,4 C 6,4 C 47 % 87 % 1021,5 hPa 0,0 l/m 0,0 km/h (0 Bft)
22.02.2009 10:52 16,4 C 6,4 C 47 % 87 % 1021,5 hPa 0,0 l/m 3,8 km/h (1 Bft)
22.02.2009 10:54 16,4 C 6,4 C 47 % 87 % 1021,5 hPa 0,0 l/m 1,6 km/h (1 Bft)
22.02.2009 10:56 16,4 C 6,4 C 47 % 87 % 1021,5 hPa 0,0 l/m 0,0 km/h (0 Bft)
22.02.2009 10:58 16,4 C 6,3 C 47 % 87 % 1021,5 hPa 0,0 l/m 2,2 km/h (1 Bft)
22.02.2009 11:00 16,4 C 6,4 C 47 % 87 % 1021,5 hPa 0,0 l/m 0,0 km/h (0 Bft)
22.02.2009 11:02 16,4 C 6,3 C 47 % 87 % 1021,5 hPa 0,0 l/m 0,0 km/h (0 Bft)
22.02.2009 11:04 16,4 C 6,3 C 47 % 87 % 1021,5 hPa 0,0 l/m 1,1 km/h (1 Bft)
22.02.2009 11:06 16,4 C 6,3 C 47 % 87 % 1021,5 hPa 0,0 l/m 0,0 km/h (0 Bft)
22.02.2009 11:08 16,4 C 6,3 C 47 % 87 % 1021,5 hPa 0,0 l/m 12,4 km/h (3 Bft)
22.02.2009 11:10 16,4 C 6,3 C 47 % 87 % 1021,5 hPa 0,0 l/m 1,1 km/h (1 Bft)
22.02.2009 11:12 16,4 C 6,3 C 47 % 88 % 1021,5 hPa 0,0 l/m 15,1 km/h (3 Bft)
22.02.2009 11:14 16,4 C 6,3 C 47 % 88 % 1021,5 hPa 0,0 l/m 15,1 km/h (3 Bft)
22.02.2009 11:16 16,4 C 6,3 C 47 % 88 % 1021,5 hPa 0,0 l/m 6,5 km/h (2 Bft)
22.02.2009 11:18 16,4 C 6,3 C 47 % 88 % 1021,5 hPa 0,0 l/m 0,0 km/h (0 Bft)
22.02.2009 11:20 16,4 C 6,3 C 47 % 88 % 1021,5 hPa 0,0 l/m 0,0 km/h (0 Bft)
22.02.2009 11:22 16,4 C 6,3 C 47 % 88 % 1021,5 hPa 0,0 l/m 3,2 km/h (1 Bft)
22.02.2009 11:24 16,4 C 6,2 C 47 % 88 % 1021,5 hPa 0,0 l/m 0,0 km/h (0 Bft)
22.02.2009 11:26 16,4 C 6,3 C 47 % 88 % 1021,5 hPa 0,0 l/m 0,0 km/h (0 Bft)
22.02.2009 11:28 16,4 C 6,3 C 47 % 88 % 1021,5 hPa 0,0 l/m 6,5 km/h (2 Bft)
22.02.2009 11:30 16,4 C 6,3 C 47 % 88 % 1021,5 hPa 0,0 l/m 0,0 km/h (0 Bft)
22.02.2009 11:32 16,4 C 6,3 C 47 % 88 % 1021,5 hPa 0,0 l/m 4,3 km/h (1 Bft)
22.02.2009 11:34 16,4 C 6,3 C 47 % 88 % 1021,5 hPa 0,0 l/m 0,0 km/h (0 Bft)
22.02.2009 11:36 16,4 C 6,3 C 47 % 88 % 1021,5 hPa 0,0 l/m 0,0 km/h (0 Bft)
22.02.2009 11:38 16,4 C 6,3 C 47 % 88 % 1021,5 hPa 0,0 l/m 2,7 km/h (1 Bft)
22.02.2009 11:40 16,4 C 6,3 C 47 % 88 % 1021,5 hPa 0,0 l/m 0,0 km/h (0 Bft)
22.02.2009 11:42 16,4 C 6,4 C 47 % 88 % 1021,5 hPa 0,0 l/m 1,6 km/h (1 Bft)
22.02.2009 11:44 16,4 C 6,4 C 47 % 88 % 1021,5 hPa 0,0 l/m 1,6 km/h (1 Bft)
22.02.2009 11:46 16,4 C 6,4 C 47 % 88 % 1021,5 hPa 0,0 l/m 5,9 km/h (2 Bft)
22.02.2009 11:48 16,4 C 6,4 C 47 % 88 % 1021,5 hPa 0,0 l/m 0,0 km/h (0 Bft)
22.02.2009 11:50 16,4 C 6,4 C 47 % 88 % 1021,5 hPa 0,0 l/m 0,0 km/h (0 Bft)
22.02.2009 11:52 16,4 C 6,4 C 47 % 88 % 1021,5 hPa 0,0 l/m 1,6 km/h (1 Bft)
22.02.2009 11:54 16,4 C 6,4 C 47 % 88 % 1021,5 hPa 0,0 l/m 7,0 km/h (2 Bft)
22.02.2009 11:56 16,4 C 6,4 C 47 % 89 % 1021,5 hPa 0,0 l/m 2,2 km/h (1 Bft)
22.02.2009 11:58 16,4 C 6,4 C 47 % 89 % 1021,5 hPa 0,0 l/m 0,0 km/h (0 Bft)
22.02.2009 12:00 16,4 C 6,4 C 47 % 89 % 1021,5 hPa 0,0 l/m 5,4 km/h (1 Bft)
22.02.2009 12:02 16,4 C 6,4 C 47 % 89 % 1021,5 hPa 0,0 l/m 0,0 km/h (0 Bft)
22.02.2009 12:04 16,4 C 6,5 C 47 % 89 % 1021,5 hPa 0,0 l/m 0,0 km/h (0 Bft)
22.02.2009 12:06 16,4 C 6,4 C 47 % 89 % 1021,5 hPa 0,0 l/m 5,4 km/h (1 Bft)
22.02.2009 12:08 16,4 C 6,5 C 47 % 89 % 1021,5 hPa 0,0 l/m 5,4 km/h (1 Bft)
22.02.2009 12:10 16,4 C 6,4 C 47 % 89 % 1021,5 hPa 0,0 l/m 0,0 km/h (0 Bft)
22.02.2009 12:12 16,4 C 6,4 C 47 % 89 % 1021,5 hPa 0,0 l/m 4,8 km/h (1 Bft)
22.02.2009 12:14 16,4 C 6,4 C 47 % 89 % 1021,5 hPa 0,0 l/m 4,8 km/h (1 Bft)
22.02.2009 12:16 16,4 C 6,5 C 47 % 89 % 1021,5 hPa 0,0 l/m 8,6 km/h (2 Bft)
22.02.2009 12:18 16,4 C 6,4 C 47 % 89 % 1021,5 hPa 0,0 l/m 0,0 km/h (0 Bft)
22.02.2009 12:20 16,4 C 6,4 C 47 % 89 % 1021,5 hPa 0,0 l/m 4,3 km/h (1 Bft)
22.02.2009 12:22 16,4 C 6,4 C 47 % 89 % 1021,5 hPa 0,0 l/m 5,4 km/h (1 Bft)
22.02.2009 12:24 16,4 C 6,5 C 47 % 89 % 1021,5 hPa 0,0 l/m 10,8 km/h (2 Bft)
22.02.2009 12:26 16,4 C 6,5 C 47 % 89 % 1021,5 hPa 0,0 l/m 0,0 km/h (0 Bft)
22.02.2009 12:28 16,3 C 6,4 C 47 % 89 % 1021,5 hPa 0,0 l/m 4,8 km/h (1 Bft)
22.02.2009 12:30 16,4 C 6,4 C 47 % 89 % 1021,5 hPa 0,0 l/m 0,0 km/h (0 Bft)
22.02.2009 12:32 16,4 C 6,4 C 47 % 89 % 1021,5 hPa 0,0 l/m 6,5 km/h (2 Bft)
22.02.2009 12:34 16,4 C 6,5 C 47 % 89 % 1021,5 hPa 0,0 l/m 0,0 km/h (0 Bft)
22.02.2009 12:36 16,3 C 6,5 C 47 % 89 % 1021,5 hPa 0,0 l/m 0,0 km/h (0 Bft)
22.02.2009 12:38 16,4 C 6,5 C 47 % 89 % 1021,5 hPa 0,0 l/m 0,0 km/h (0 Bft)
22.02.2009 12:40 16,3 C 6,5 C 47 % 89 % 1021,5 hPa 0,0 l/m 0,0 km/h (0 Bft)
22.02.2009 12:42 16,4 C 6,6 C 47 % 89 % 1021,5 hPa 0,0 l/m 0,0 km/h (0 Bft)
22.02.2009 12:44 16,4 C 6,6 C 47 % 89 % 1021,5 hPa 0,0 l/m 0,0 km/h (0 Bft)
22.02.2009 12:46 16,4 C 6,5 C 47 % 89 % 1021,5 hPa 0,0 l/m 0,0 km/h (0 Bft)
22.02.2009 12:48 16,3 C 6,6 C 47 % 89 % 1021,5 hPa 0,0 l/m 0,0 km/h (0 Bft)
22.02.2009 12:50 16,4 C 6,6 C 47 % 89 % 1021,5 hPa 0,0 l/m 8,6 km/h (2 Bft)
22.02.2009 12:52 16,4 C 6,6 C 47 % 89 % 1021,5 hPa 0,0 l/m 4,3 km/h (1 Bft)
22.02.2009 12:54 16,3 C 6,6 C 47 % 89 % 1021,5 hPa 0,0 l/m 4,3 km/h (1 Bft)
22.02.2009 12:56 16,4 C 6,6 C 47 % 89 % 1021,5 hPa 0,0 l/m 0,0 km/h (0 Bft)
22.02.2009 12:58 16,4 C 6,6 C 47 % 89 % 1021,5 hPa 0,0 l/m 8,6 km/h (2 Bft)
22.02.2009 13:00 16,4 C 6,6 C 47 % 89 % 1021,5 hPa 0,0 l/m 3,8 km/h (1 Bft)
22.02.2009 13:02 16,4 C 6,7 C 47 % 89 % 1021,5 hPa 0,0 l/m 3,8 km/h (1 Bft)
22.02.2009 13:04 16,3 C 6,6 C 47 % 89 % 1021,5 hPa 0,0 l/m 0,0 km/h (0 Bft)
22.02.2009 13:06 16,4 C 6,6 C 47 % 89 % 1021,5 hPa 0,0 l/m 0,0 km/h (0 Bft)
22.02.2009 13:08 16,3 C 6,6 C 47 % 89 % 1021,5 hPa 0,0 l/m 0,0 km/h (0 Bft)
22.02.2009 13:10 16,4 C 6,6 C 47 % 89 % 1021,5 hPa 0,0 l/m 0,0 km/h (0 Bft)
22.02.2009 13:12 16,3 C 6,7 C 48 % 89 % 1021,5 hPa 0,0 l/m 0,0 km/h (0 Bft)
22.02.2009 13:14 16,3 C 6,7 C 47 % 89 % 1021,5 hPa 0,0 l/m 0,0 km/h (0 Bft)
22.02.2009 13:16 16,3 C 6,7 C 48 % 89 % 1021,5 hPa 0,0 l/m 2,7 km/h (1 Bft)
22.02.2009 13:18 16,3 C 6,7 C 48 % 89 % 1021,5 hPa 0,0 l/m 0,0 km/h (0 Bft)
22.02.2009 13:20 16,3 C 6,7 C 48 % 90 % 1021,5 hPa 0,0 l/m 2,2 km/h (1 Bft)
22.02.2009 13:22 16,3 C 6,7 C 48 % 90 % 1021,5 hPa 0,0 l/m 0,0 km/h (0 Bft)
22.02.2009 13:24 16,3 C 6,7 C 48 % 90 % 1021,5 hPa 0,0 l/m 0,0 km/h (0 Bft)
22.02.2009 13:26 16,3 C 6,6 C 48 % 90 % 1021,5 hPa 0,0 l/m 0,0 km/h (0 Bft)
22.02.2009 13:28 16,3 C 6,7 C 48 % 90 % 1021,5 hPa 0,0 l/m 12,4 km/h (3 Bft)
22.02.2009 13:30 16,4 C 6,7 C 48 % 90 % 1021,5 hPa 0,0 l/m 0,0 km/h (0 Bft)
22.02.2009 13:32 16,3 C 6,7 C 48 % 90 % 1021,5 hPa 0,0 l/m 9,1 km/h (2 Bft)
22.02.2009 13:34 16,3 C 6,7 C 48 % 90 % 1021,5 hPa 0,0 l/m 0,0 km/h (0 Bft)
22.02.2009 13:36 16,3 C 6,7 C 48 % 90 % 1021,5 hPa 0,0 l/m 0,0 km/h (0 Bft)
22.02.2009 13:38 16,4 C 6,7 C 48 % 90 % 1020,5 hPa 0,0 l/m 5,9 km/h (2 Bft)
22.02.2009 13:40 16,3 C 6,8 C 48 % 90 % 1020,5 hPa 0,0 l/m 0,0 km/h (0 Bft)
22.02.2009 13:42 16,3 C 6,8 C 48 % 90 % 1021,5 hPa 0,0 l/m 2,2 km/h (1 Bft)
22.02.2009 13:44 16,3 C 6,8 C 48 % 90 % 1020,5 hPa 0,0 l/m 2,2 km/h (1 Bft)
22.02.2009 13:46 16,3 C 6,8 C 48 % 90 % 1020,5 hPa 0,0 l/m 13,5 km/h (3 Bft)
22.02.2009 13:48 16,3 C 6,8 C 48 % 90 % 1020,5 hPa 0,0 l/m 4,3 km/h (1 Bft)
22.02.2009 13:50 16,3 C 6,8 C 48 % 90 % 1020,5 hPa 0,0 l/m 0,0 km/h (0 Bft)
22.02.2009 13:52 16,3 C 6,8 C 48 % 90 % 1020,5 hPa 0,0 l/m 0,0 km/h (0 Bft)
22.02.2009 13:54 16,3 C 6,8 C 48 % 90 % 1020,5 hPa 0,0 l/m 0,0 km/h (0 Bft)
22.02.2009 13:56 16,3 C 6,8 C 48 % 90 % 1020,5 hPa 0,0 l/m 0,0 km/h (0 Bft)
22.02.2009 13:58 16,3 C 6,9 C 48 % 90 % 1020,5 hPa 0,0 l/m 12,9 km/h (3 Bft)
22.02.2009 14:00 16,3 C 6,9 C 48 % 90 % 1020,5 hPa 0,0 l/m 10,8 km/h (2 Bft)
22.02.2009 14:02 16,3 C 6,9 C 48 % 90 % 1020,5 hPa 0,0 l/m 0,0 km/h (0 Bft)
22.02.2009 14:04 16,3 C 6,9 C 48 % 90 % 1020,5 hPa 0,0 l/m 8,6 km/h (2 Bft)
22.02.2009 14:06 16,3 C 6,9 C 48 % 90 % 1020,5 hPa 0,0 l/m 7,5 km/h (2 Bft)
22.02.2009 14:08 16,3 C 6,9 C 48 % 90 % 1020,5 hPa 0,0 l/m 12,9 km/h (3 Bft)
22.02.2009 14:10 16,3 C 6,9 C 48 % 90 % 1020,5 hPa 0,0 l/m 0,0 km/h (0 Bft)
22.02.2009 14:12 16,3 C 6,9 C 48 % 90 % 1020,5 hPa 0,0 l/m 0,0 km/h (0 Bft)
22.02.2009 14:14 16,3 C 6,9 C 48 % 90 % 1020,5 hPa 0,0 l/m 0,0 km/h (0 Bft)
22.02.2009 14:16 16,3 C 6,9 C 48 % 90 % 1020,5 hPa 0,0 l/m 0,0 km/h (0 Bft)
22.02.2009 14:18 16,3 C 6,9 C 48 % 90 % 1020,5 hPa 0,0 l/m 16,1 km/h (3 Bft)
22.02.2009 14:20 16,3 C 6,9 C 48 % 90 % 1020,5 hPa 0,0 l/m 0,0 km/h (0 Bft)
22.02.2009 14:22 16,3 C 6,9 C 48 % 90 % 1020,5 hPa 0,0 l/m 0,0 km/h (0 Bft)
22.02.2009 14:24 16,3 C 6,9 C 48 % 90 % 1020,5 hPa 0,0 l/m 0,0 km/h (0 Bft)
22.02.2009 14:26 16,3 C 6,9 C 48 % 90 % 1020,5 hPa 0,0 l/m 8,1 km/h (2 Bft)
22.02.2009 14:28 16,3 C 6,9 C 48 % 90 % 1020,5 hPa 0,0 l/m 7,0 km/h (2 Bft)
22.02.2009 14:30 16,3 C 6,9 C 48 % 90 % 1020,5 hPa 0,0 l/m 0,0 km/h (0 Bft)
22.02.2009 14:32 16,3 C 6,9 C 48 % 90 % 1020,5 hPa 0,0 l/m 0,0 km/h (0 Bft)
22.02.2009 14:34 16,3 C 6,9 C 48 % 90 % 1020,5 hPa 0,0 l/m 0,0 km/h (0 Bft)
22.02.2009 14:36 16,3 C 6,9 C 48 % 90 % 1020,5 hPa 0,0 l/m 3,2 km/h (1 Bft)
22.02.2009 14:38 16,3 C 6,9 C 48 % 90 % 1020,5 hPa 0,0 l/m 0,0 km/h (0 Bft)
22.02.2009 14:40 16,3 C 6,9 C 48 % 90 % 1020,5 hPa 0,0 l/m 2,2 km/h (1 Bft)
22.02.2009 14:42 16,3 C 6,9 C 48 % 90 % 1020,5 hPa 0,0 l/m 2,2 km/h (1 Bft)
22.02.2009 14:44 16,3 C 6,9 C 48 % 90 % 1020,5 hPa 0,0 l/m 2,2 km/h (1 Bft)
22.02.2009 14:46 16,3 C 7,0 C 48 % 90 % 1020,5 hPa 0,0 l/m 7,5 km/h (2 Bft)
22.02.2009 14:48 16,3 C 7,0 C 48 % 90 % 1020,5 hPa 0,0 l/m 0,0 km/h (0 Bft)
22.02.2009 14:50 16,3 C 7,0 C 48 % 90 % 1020,5 hPa 0,0 l/m 0,0 km/h (0 Bft)
22.02.2009 14:52 16,3 C 7,0 C 48 % 90 % 1020,5 hPa 0,0 l/m 18,8 km/h (3 Bft)
22.02.2009 14:54 16,3 C 7,1 C 48 % 90 % 1020,5 hPa 0,0 l/m 0,0 km/h (0 Bft)
22.02.2009 14:56 16,3 C 7,1 C 48 % 90 % 1020,5 hPa 0,0 l/m 0,0 km/h (0 Bft)
22.02.2009 14:58 16,3 C 7,1 C 48 % 90 % 1020,5 hPa 0,0 l/m 0,0 km/h (0 Bft)
22.02.2009 15:00 16,3 C 7,2 C 48 % 90 % 1020,5 hPa 0,0 l/m 7,0 km/h (2 Bft)
22.02.2009 15:02 16,3 C 7,2 C 48 % 90 % 1020,5 hPa 0,0 l/m 0,0 km/h (0 Bft)
22.02.2009 15:04 16,3 C 7,2 C 48 % 90 % 1020,5 hPa 0,0 l/m 0,0 km/h (0 Bft)
22.02.2009 15:06 16,3 C 7,3 C 48 % 90 % 1020,5 hPa 0,0 l/m 0,0 km/h (0 Bft)
22.02.2009 15:08 16,3 C 7,3 C 48 % 90 % 1020,5 hPa 0,0 l/m 2,7 km/h (1 Bft)
22.02.2009 15:10 16,3 C 7,3 C 48 % 90 % 1020,5 hPa 0,0 l/m 0,0 km/h (0 Bft)
22.02.2009 15:12 16,3 C 7,3 C 48 % 90 % 1020,5 hPa 0,0 l/m 0,0 km/h (0 Bft)
22.02.2009 15:14 16,3 C 7,3 C 48 % 90 % 1020,5 hPa 0,0 l/m 0,0 km/h (0 Bft)
22.02.2009 15:16 16,3 C 7,3 C 48 % 90 % 1020,5 hPa 0,0 l/m 0,0 km/h (0 Bft)
22.02.2009 15:18 16,3 C 7,3 C 48 % 90 % 1020,5 hPa 0,0 l/m 0,0 km/h (0 Bft)
22.02.2009 15:20 16,3 C 7,3 C 48 % 90 % 1020,5 hPa 0,0 l/m 0,0 km/h (0 Bft)
22.02.2009 15:22 16,3 C 7,3 C 48 % 90 % 1020,5 hPa 0,0 l/m 0,0 km/h (0 Bft)
22.02.2009 15:24 16,3 C 7,3 C 48 % 90 % 1020,5 hPa 0,0 l/m 0,0 km/h (0 Bft)
22.02.2009 15:26 16,3 C 7,3 C 48 % 90 % 1020,5 hPa 0,0 l/m 0,0 km/h (0 Bft)
22.02.2009 15:28 16,3 C 7,3 C 48 % 90 % 1020,5 hPa 0,0 l/m 0,0 km/h (0 Bft)
22.02.2009 15:30 16,3 C 7,3 C 48 % 90 % 1020,5 hPa 0,0 l/m 1,6 km/h (1 Bft)
22.02.2009 15:32 16,3 C 7,4 C 48 % 90 % 1020,5 hPa 0,0 l/m 5,9 km/h (2 Bft)
22.02.2009 15:34 16,3 C 7,4 C 48 % 90 % 1020,5 hPa 0,0 l/m 0,0 km/h (0 Bft)
22.02.2009 15:36 16,3 C 7,4 C 48 % 90 % 1020,5 hPa 0,0 l/m 0,0 km/h (0 Bft)
22.02.2009 15:38 16,3 C 7,4 C 48 % 90 % 1020,5 hPa 0,0 l/m 0,0 km/h (0 Bft)
22.02.2009 15:40 16,3 C 7,4 C 48 % 90 % 1020,5 hPa 0,0 l/m 0,0 km/h (0 Bft)
22.02.2009 15:42 16,3 C 7,4 C 48 % 90 % 1020,5 hPa 0,0 l/m 0,0 km/h (0 Bft)
22.02.2009 15:44 16,3 C 7,4 C 48 % 90 % 1020,5 hPa 0,0 l/m 0,0 km/h (0 Bft)
22.02.2009 15:46 16,3 C 7,4 C 48 % 90 % 1020,5 hPa 0,0 l/m 5,4 km/h (1 Bft)
22.02.2009 15:48 16,3 C 7,4 C 48 % 89 % 1020,5 hPa 0,0 l/m 0,0 km/h (0 Bft)
22.02.2009 15:50 16,3 C 7,4 C 48 % 89 % 1020,5 hPa 0,0 l/m 0,0 km/h (0 Bft)
22.02.2009 15:52 16,3 C 7,4 C 48 % 89 % 1020,5 hPa 0,0 l/m 0,0 km/h (0 Bft)
22.02.2009 15:54 16,3 C 7,4 C 48 % 89 % 1020,5 hPa 0,0 l/m 0,0 km/h (0 Bft)
22.02.2009 15:56 16,3 C 7,5 C 48 % 89 % 1020,5 hPa 0,0 l/m 2,2 km/h (1 Bft)
22.02.2009 15:58 16,3 C 7,5 C 48 % 89 % 1020,5 hPa 0,0 l/m 7,5 km/h (2 Bft)
22.02.2009 16:00 16,3 C 7,5 C 48 % 89 % 1020,5 hPa 0,0 l/m 3,8 km/h (1 Bft)
22.02.2009 16:02 16,3 C 7,6 C 48 % 89 % 1020,5 hPa 0,0 l/m 0,0 km/h (0 Bft)
22.02.2009 16:04 16,3 C 7,6 C 48 % 89 % 1020,5 hPa 0,0 l/m 0,0 km/h (0 Bft)
22.02.2009 16:06 16,4 C 7,6 C 48 % 89 % 1020,5 hPa 0,0 l/m 0,0 km/h (0 Bft)
22.02.2009 16:08 16,4 C 7,6 C 48 % 89 % 1020,5 hPa 0,0 l/m 0,0 km/h (0 Bft)
22.02.2009 16:10 16,3 C 7,6 C 48 % 89 % 1020,5 hPa 0,0 l/m 0,0 km/h (0 Bft)
22.02.2009 16:12 16,3 C 7,6 C 48 % 89 % 1020,5 hPa 0,0 l/m 8,6 km/h (2 Bft)
22.02.2009 16:14 16,4 C 7,6 C 48 % 89 % 1020,5 hPa 0,0 l/m 8,6 km/h (2 Bft)
22.02.2009 16:16 16,4 C 7,6 C 48 % 89 % 1020,5 hPa 0,0 l/m 0,0 km/h (0 Bft)
22.02.2009 16:18 16,4 C 7,6 C 48 % 89 % 1020,5 hPa 0,0 l/m 0,0 km/h (0 Bft)
22.02.2009 16:20 16,4 C 7,6 C 48 % 89 % 1020,5 hPa 0,0 l/m 3,2 km/h (1 Bft)
22.02.2009 16:22 16,3 C 7,6 C 48 % 89 % 1020,5 hPa 0,0 l/m 0,0 km/h (0 Bft)
22.02.2009 16:24 16,4 C 7,6 C 48 % 89 % 1020,5 hPa 0,0 l/m 0,0 km/h (0 Bft)
22.02.2009 16:26 16,4 C 7,7 C 48 % 89 % 1020,5 hPa 0,0 l/m 0,0 km/h (0 Bft)
22.02.2009 16:28 16,4 C 7,7 C 48 % 89 % 1020,5 hPa 0,0 l/m 0,0 km/h (0 Bft)
22.02.2009 16:30 16,3 C 7,8 C 48 % 89 % 1020,5 hPa 0,0 l/m 0,0 km/h (0 Bft)
22.02.2009 16:32 16,4 C 7,8 C 48 % 89 % 1020,5 hPa 0,0 l/m 0,0 km/h (0 Bft)
22.02.2009 16:34 16,3 C 7,7 C 48 % 89 % 1020,5 hPa 0,0 l/m 13,5 km/h (3 Bft)
22.02.2009 16:36 16,3 C 7,6 C 48 % 89 % 1020,5 hPa 0,0 l/m 11,8 km/h (2 Bft)
22.02.2009 16:38 16,4 C 7,7 C 48 % 89 % 1020,5 hPa 0,0 l/m 0,0 km/h (0 Bft)
22.02.2009 16:40 16,4 C 7,8 C 48 % 89 % 1020,5 hPa 0,0 l/m 0,0 km/h (0 Bft)
22.02.2009 16:42 16,3 C 7,8 C 48 % 89 % 1020,5 hPa 0,0 l/m 2,7 km/h (1 Bft)
22.02.2009 16:44 16,4 C 7,8 C 48 % 89 % 1020,5 hPa 0,0 l/m 0,5 km/h (0 Bft)
22.02.2009 16:46 16,3 C 7,8 C 48 % 89 % 1020,5 hPa 0,0 l/m 0,5 km/h (0 Bft)
22.02.2009 16:48 16,3 C 7,8 C 48 % 89 % 1020,5 hPa 0,0 l/m 0,0 km/h (0 Bft)
22.02.2009 16:50 16,3 C 7,8 C 48 % 89 % 1020,5 hPa 0,0 l/m 0,0 km/h (0 Bft)
22.02.2009 16:52 16,4 C 7,8 C 48 % 89 % 1020,5 hPa 0,0 l/m 0,0 km/h (0 Bft)
22.02.2009 16:54 16,4 C 7,8 C 48 % 89 % 1020,5 hPa 0,0 l/m 0,0 km/h (0 Bft)
22.02.2009 16:56 16,4 C 7,8 C 48 % 89 % 1020,5 hPa 0,0 l/m 0,0 km/h (0 Bft)
22.02.2009 16:58 16,4 C 7,8 C 48 % 89 % 1020,5 hPa 0,0 l/m 0,0 km/h (0 Bft)
22.02.2009 17:00 16,3 C 7,8 C 48 % 89 % 1020,5 hPa 0,0 l/m 0,0 km/h (0 Bft)
22.02.2009 17:02 16,4 C 7,7 C 48 % 89 % 1020,5 hPa 0,0 l/m 5,4 km/h (1 Bft)
22.02.2009 17:04 16,4 C 7,8 C 48 % 89 % 1020,5 hPa 0,0 l/m 0,0 km/h (0 Bft)
22.02.2009 17:06 16,4 C 7,8 C 48 % 89 % 1020,5 hPa 0,0 l/m 5,4 km/h (1 Bft)
22.02.2009 17:08 16,3 C 7,7 C 48 % 89 % 1020,5 hPa 0,0 l/m 0,0 km/h (0 Bft)
22.02.2009 17:10 16,3 C 7,6 C 48 % 89 % 1020,5 hPa 0,0 l/m 0,0 km/h (0 Bft)
22.02.2009 17:12 16,4 C 7,7 C 48 % 88 % 1020,5 hPa 0,0 l/m 0,0 km/h (0 Bft)
22.02.2009 17:14 16,4 C 7,7 C 48 % 88 % 1020,5 hPa 0,0 l/m 0,0 km/h (0 Bft)
22.02.2009 17:16 16,4 C 7,7 C 48 % 88 % 1020,5 hPa 0,0 l/m 0,0 km/h (0 Bft)
22.02.2009 17:18 16,3 C 7,8 C 48 % 88 % 1020,5 hPa 0,0 l/m 4,3 km/h (1 Bft)
22.02.2009 17:20 16,4 C 7,6 C 48 % 88 % 1019,5 hPa 0,0 l/m 0,0 km/h (0 Bft)
22.02.2009 17:22 16,3 C 7,7 C 48 % 88 % 1019,5 hPa 0,0 l/m 1,1 km/h (1 Bft)
22.02.2009 17:24 16,4 C 7,6 C 48 % 88 % 1020,5 hPa 0,0 l/m 0,0 km/h (0 Bft)
22.02.2009 17:26 16,3 C 7,6 C 48 % 88 % 1019,5 hPa 0,0 l/m 1,6 km/h (1 Bft)
22.02.2009 17:28 16,3 C 7,6 C 48 % 88 % 1020,5 hPa 0,0 l/m 0,0 km/h (0 Bft)
22.02.2009 17:30 16,3 C 7,6 C 48 % 88 % 1020,5 hPa 0,0 l/m 0,0 km/h (0 Bft)
22.02.2009 17:32 16,4 C 7,6 C 48 % 88 % 1020,5 hPa 0,0 l/m 0,0 km/h (0 Bft)
22.02.2009 17:34 16,4 C 7,6 C 48 % 88 % 1020,5 hPa 0,0 l/m 0,0 km/h (0 Bft)
22.02.2009 17:36 16,4 C 7,6 C 48 % 88 % 1020,5 hPa 0,0 l/m 0,0 km/h (0 Bft)
22.02.2009 17:38 16,4 C 7,6 C 48 % 88 % 1020,5 hPa 0,0 l/m 1,1 km/h (1 Bft)
22.02.2009 17:40 16,4 C 7,6 C 48 % 88 % 1020,5 hPa 0,0 l/m 1,6 km/h (1 Bft)
22.02.2009 17:42 16,4 C 7,6 C 48 % 88 % 1020,5 hPa 0,0 l/m 0,0 km/h (0 Bft)
22.02.2009 17:44 16,4 C 7,6 C 48 % 88 % 1020,5 hPa 0,0 l/m 10,8 km/h (2 Bft)
22.02.2009 17:46 16,4 C 7,6 C 48 % 88 % 1020,5 hPa 0,0 l/m 10,8 km/h (2 Bft)
22.02.2009 17:48 16,4 C 7,6 C 48 % 88 % 1020,5 hPa 0,0 l/m 6,5 km/h (2 Bft)
22.02.2009 17:50 16,4 C 7,6 C 48 % 88 % 1020,5 hPa 0,0 l/m 0,0 km/h (0 Bft)
22.02.2009 17:52 16,3 C 7,6 C 48 % 88 % 1020,5 hPa 0,0 l/m 7,5 km/h (2 Bft)
22.02.2009 17:54 16,4 C 7,6 C 48 % 88 % 1020,5 hPa 0,0 l/m 0,0 km/h (0 Bft)
22.02.2009 17:56 16,3 C 7,6 C 48 % 88 % 1020,5 hPa 0,0 l/m 0,0 km/h (0 Bft)
22.02.2009 17:58 16,4 C 7,6 C 48 % 88 % 1020,5 hPa 0,0 l/m 0,0 km/h (0 Bft)
22.02.2009 18:00 16,4 C 7,6 C 48 % 88 % 1020,5 hPa 0,0 l/m 4,3 km/h (1 Bft)
22.02.2009 18:02 16,4 C 7,5 C 48 % 88 % 1020,5 hPa 0,0 l/m 0,0 km/h (0 Bft)
22.02.2009 18:04 16,4 C 7,5 C 48 % 88 % 1020,5 hPa 0,0 l/m 2,2 km/h (1 Bft)
22.02.2009 18:06 16,3 C 7,5 C 48 % 88 % 1020,5 hPa 0,0 l/m 0,0 km/h (0 Bft)
22.02.2009 18:08 16,4 C 7,5 C 48 % 88 % 1020,5 hPa 0,0 l/m 0,0 km/h (0 Bft)
22.02.2009 18:10 16,3 C 7,5 C 48 % 88 % 1020,5 hPa 0,0 l/m 1,6 km/h (1 Bft)
22.02.2009 18:12 16,3 C 7,5 C 48 % 88 % 1020,5 hPa 0,0 l/m 0,0 km/h (0 Bft)
22.02.2009 18:14 16,3 C 7,4 C 48 % 88 % 1020,5 hPa 0,0 l/m 1,6 km/h (1 Bft)
22.02.2009 18:16 16,3 C 7,4 C 48 % 88 % 1020,5 hPa 0,0 l/m 1,6 km/h (1 Bft)
22.02.2009 18:18 16,4 C 7,4 C 48 % 88 % 1020,5 hPa 0,0 l/m 4,3 km/h (1 Bft)
22.02.2009 18:20 16,4 C 7,4 C 48 % 88 % 1020,5 hPa 0,0 l/m 0,0 km/h (0 Bft)
22.02.2009 18:22 16,4 C 7,4 C 48 % 88 % 1020,5 hPa 0,0 l/m 0,0 km/h (0 Bft)
22.02.2009 18:24 16,4 C 7,4 C 48 % 88 % 1020,5 hPa 0,0 l/m 0,0 km/h (0 Bft)
22.02.2009 18:26 16,4 C 7,4 C 48 % 88 % 1020,5 hPa 0,0 l/m 0,0 km/h (0 Bft)
22.02.2009 18:28 16,4 C 7,4 C 48 % 88 % 1020,5 hPa 0,0 l/m 16,7 km/h (3 Bft)
22.02.2009 18:30 16,4 C 7,4 C 48 % 88 % 1020,5 hPa 0,0 l/m 0,0 km/h (0 Bft)
22.02.2009 18:32 16,4 C 7,3 C 48 % 88 % 1020,5 hPa 0,0 l/m 0,0 km/h (0 Bft)
22.02.2009 18:34 16,4 C 7,3 C 48 % 88 % 1020,5 hPa 0,0 l/m 2,2 km/h (1 Bft)
22.02.2009 18:36 16,4 C 7,3 C 48 % 88 % 1020,5 hPa 0,0 l/m 15,6 km/h (3 Bft)
22.02.2009 18:38 16,4 C 7,3 C 48 % 88 % 1020,5 hPa 0,0 l/m 10,2 km/h (2 Bft)
22.02.2009 18:40 16,4 C 7,3 C 48 % 88 % 1020,5 hPa 0,0 l/m 0,0 km/h (0 Bft)
22.02.2009 18:42 16,5 C 7,3 C 48 % 88 % 1020,5 hPa 0,0 l/m 0,0 km/h (0 Bft)
22.02.2009 18:44 16,5 C 7,3 C 48 % 88 % 1020,5 hPa 0,0 l/m 0,0 km/h (0 Bft)
22.02.2009 18:46 16,5 C 7,3 C 48 % 88 % 1020,5 hPa 0,0 l/m 0,0 km/h (0 Bft)
22.02.2009 18:48 16,5 C 7,2 C 48 % 88 % 1020,5 hPa 0,0 l/m 0,0 km/h (0 Bft)
22.02.2009 18:50 16,5 C 7,2 C 48 % 88 % 1020,5 hPa 0,0 l/m 4,8 km/h (1 Bft)
22.02.2009 18:52 16,5 C 7,2 C 48 % 88 % 1020,5 hPa 0,0 l/m 5,9 km/h (2 Bft)
22.02.2009 18:54 16,5 C 7,2 C 48 % 88 % 1020,5 hPa 0,0 l/m 0,0 km/h (0 Bft)
22.02.2009 18:56 16,6 C 7,2 C 48 % 88 % 1020,5 hPa 0,5 l/m 12,9 km/h (3 Bft)
22.02.2009 18:58 16,6 C 7,2 C 48 % 88 % 1020,5 hPa 0,0 l/m 0,0 km/h (0 Bft)
22.02.2009 19:00 16,6 C 7,1 C 48 % 88 % 1020,5 hPa 0,0 l/m 0,0 km/h (0 Bft)
22.02.2009 19:02 16,6 C 7,1 C 48 % 88 % 1020,5 hPa 0,0 l/m 0,0 km/h (0 Bft)
22.02.2009 19:04 16,6 C 7,1 C 48 % 88 % 1020,5 hPa 0,0 l/m 0,0 km/h (0 Bft)
22.02.2009 19:06 16,6 C 7,1 C 48 % 88 % 1020,5 hPa 0,0 l/m 0,0 km/h (0 Bft)
22.02.2009 19:08 16,6 C 7,1 C 48 % 88 % 1020,5 hPa 0,0 l/m 0,0 km/h (0 Bft)
22.02.2009 19:10 16,6 C 7,0 C 48 % 88 % 1020,5 hPa 0,0 l/m 0,0 km/h (0 Bft)
22.02.2009 19:12 16,6 C 7,0 C 48 % 88 % 1020,5 hPa 0,0 l/m 0,0 km/h (0 Bft)
22.02.2009 19:14 16,6 C 7,0 C 48 % 88 % 1020,5 hPa 0,0 l/m 0,0 km/h (0 Bft)
22.02.2009 19:16 16,6 C 7,0 C 48 % 88 % 1020,5 hPa 0,0 l/m 0,0 km/h (0 Bft)
22.02.2009 19:18 16,6 C 7,0 C 48 % 88 % 1020,5 hPa 0,0 l/m 0,0 km/h (0 Bft)
22.02.2009 19:20 16,6 C 6,9 C 48 % 88 % 1020,5 hPa 0,0 l/m 0,0 km/h (0 Bft)
22.02.2009 19:22 16,6 C 6,9 C 48 % 88 % 1020,5 hPa 0,0 l/m 0,0 km/h (0 Bft)
22.02.2009 19:24 16,6 C 6,9 C 48 % 88 % 1020,5 hPa 0,0 l/m 0,0 km/h (0 Bft)
22.02.2009 19:26 16,6 C 6,9 C 48 % 88 % 1020,5 hPa 0,0 l/m 0,0 km/h (0 Bft)
22.02.2009 19:28 16,6 C 6,9 C 48 % 88 % 1020,5 hPa 0,0 l/m 0,0 km/h (0 Bft)
22.02.2009 19:30 16,6 C 6,9 C 48 % 88 % 1020,5 hPa 0,0 l/m 0,0 km/h (0 Bft)
22.02.2009 19:32 16,6 C 6,9 C 48 % 88 % 1020,5 hPa 0,0 l/m 0,0 km/h (0 Bft)
22.02.2009 19:34 16,6 C 6,9 C 48 % 88 % 1020,5 hPa 0,0 l/m 10,2 km/h (2 Bft)
22.02.2009 19:36 16,6 C 6,9 C 48 % 88 % 1020,5 hPa 0,0 l/m 7,0 km/h (2 Bft)
22.02.2009 19:38 16,6 C 6,8 C 48 % 88 % 1020,5 hPa 0,0 l/m 0,0 km/h (0 Bft)
22.02.2009 19:40 16,6 C 6,9 C 48 % 88 % 1020,5 hPa 0,0 l/m 0,0 km/h (0 Bft)
22.02.2009 19:42 16,6 C 6,8 C 48 % 88 % 1020,5 hPa 0,0 l/m 0,0 km/h (0 Bft)
22.02.2009 19:44 16,6 C 6,8 C 48 % 88 % 1020,5 hPa 0,0 l/m 0,0 km/h (0 Bft)
22.02.2009 19:46 16,6 C 6,8 C 48 % 88 % 1020,5 hPa 0,0 l/m 0,0 km/h (0 Bft)
22.02.2009 19:48 16,6 C 6,8 C 48 % 88 % 1020,5 hPa 0,0 l/m 0,0 km/h (0 Bft)
22.02.2009 19:50 16,6 C 6,8 C 48 % 88 % 1020,5 hPa 0,0 l/m 5,9 km/h (2 Bft)
22.02.2009 19:52 16,6 C 6,8 C 48 % 88 % 1020,5 hPa 0,0 l/m 0,0 km/h (0 Bft)
22.02.2009 19:54 16,6 C 6,8 C 48 % 88 % 1020,5 hPa 0,0 l/m 0,0 km/h (0 Bft)
22.02.2009 19:56 16,6 C 6,8 C 48 % 88 % 1020,5 hPa 0,0 l/m 0,0 km/h (0 Bft)
22.02.2009 19:58 16,6 C 6,8 C 48 % 88 % 1020,5 hPa 0,0 l/m 0,0 km/h (0 Bft)
22.02.2009 20:00 16,6 C 6,8 C 48 % 88 % 1020,5 hPa 0,0 l/m 0,0 km/h (0 Bft)
22.02.2009 20:02 16,6 C 6,7 C 48 % 88 % 1020,5 hPa 0,0 l/m 0,0 km/h (0 Bft)
22.02.2009 20:04 16,6 C 6,7 C 48 % 88 % 1020,5 hPa 0,0 l/m 0,0 km/h (0 Bft)
22.02.2009 20:06 16,6 C 6,7 C 48 % 88 % 1020,5 hPa 0,0 l/m 0,0 km/h (0 Bft)
22.02.2009 20:08 16,6 C 6,6 C 48 % 88 % 1020,5 hPa 0,0 l/m 0,0 km/h (0 Bft)
22.02.2009 20:10 16,6 C 6,6 C 48 % 88 % 1020,5 hPa 0,0 l/m 0,0 km/h (0 Bft)
22.02.2009 20:12 16,6 C 6,6 C 48 % 88 % 1020,5 hPa 0,0 l/m 0,0 km/h (0 Bft)
22.02.2009 20:14 16,6 C 6,6 C 48 % 88 % 1020,5 hPa 0,0 l/m 0,0 km/h (0 Bft)
22.02.2009 20:16 16,6 C 6,6 C 48 % 88 % 1020,5 hPa 0,0 l/m 0,0 km/h (0 Bft)
22.02.2009 20:18 16,7 C 6,6 C 48 % 88 % 1020,5 hPa 0,0 l/m 0,0 km/h (0 Bft)
22.02.2009 20:20 16,7 C 6,6 C 48 % 88 % 1020,5 hPa 0,0 l/m 0,0 km/h (0 Bft)
22.02.2009 20:22 16,7 C 6,6 C 48 % 88 % 1020,5 hPa 0,0 l/m 0,0 km/h (0 Bft)
22.02.2009 20:24 16,7 C 6,6 C 48 % 88 % 1020,5 hPa 0,0 l/m 0,0 km/h (0 Bft)
22.02.2009 20:26 16,7 C 6,5 C 48 % 88 % 1020,5 hPa 0,0 l/m 0,0 km/h (0 Bft)
22.02.2009 20:28 16,7 C 6,5 C 48 % 88 % 1020,5 hPa 0,0 l/m 0,0 km/h (0 Bft)
22.02.2009 20:30 16,7 C 6,5 C 48 % 88 % 1020,5 hPa 0,0 l/m 0,0 km/h (0 Bft)
22.02.2009 20:32 16,7 C 6,5 C 48 % 88 % 1020,5 hPa 0,0 l/m 0,0 km/h (0 Bft)
22.02.2009 20:34 16,7 C 6,5 C 48 % 88 % 1020,5 hPa 0,0 l/m 0,0 km/h (0 Bft)
22.02.2009 20:36 16,7 C 6,5 C 48 % 88 % 1020,5 hPa 0,0 l/m 0,0 km/h (0 Bft)
22.02.2009 20:38 16,7 C 6,4 C 48 % 88 % 1020,5 hPa 0,0 l/m 0,0 km/h (0 Bft)
22.02.2009 20:40 16,7 C 6,4 C 48 % 88 % 1020,5 hPa 0,0 l/m 0,0 km/h (0 Bft)
22.02.2009 20:42 16,7 C 6,4 C 48 % 88 % 1020,5 hPa 0,0 l/m 0,0 km/h (0 Bft)
22.02.2009 20:44 16,7 C 6,4 C 48 % 88 % 1020,5 hPa 0,0 l/m 0,0 km/h (0 Bft)
22.02.2009 20:46 16,7 C 6,4 C 48 % 88 % 1020,5 hPa 0,0 l/m 0,0 km/h (0 Bft)
22.02.2009 20:48 16,7 C 6,4 C 48 % 88 % 1020,5 hPa 0,0 l/m 1,6 km/h (1 Bft)
22.02.2009 20:50 16,7 C 6,4 C 48 % 88 % 1020,5 hPa 0,0 l/m 10,8 km/h (2 Bft)
22.02.2009 20:52 16,7 C 6,4 C 48 % 88 % 1020,5 hPa 0,0 l/m 0,0 km/h (0 Bft)
22.02.2009 20:54 16,7 C 6,4 C 48 % 88 % 1020,5 hPa 0,0 l/m 0,0 km/h (0 Bft)
22.02.2009 20:56 16,7 C 6,4 C 48 % 88 % 1020,5 hPa 0,0 l/m 0,0 km/h (0 Bft)
22.02.2009 20:58 16,7 C 6,4 C 48 % 88 % 1020,5 hPa 0,0 l/m 3,8 km/h (1 Bft)
22.02.2009 21:00 16,7 C 6,3 C 48 % 88 % 1020,5 hPa 0,0 l/m 0,0 km/h (0 Bft)
22.02.2009 21:02 16,7 C 6,3 C 48 % 88 % 1020,5 hPa 0,0 l/m 0,0 km/h (0 Bft)
22.02.2009 21:04 16,7 C 6,3 C 48 % 88 % 1020,5 hPa 0,0 l/m 7,5 km/h (2 Bft)
22.02.2009 21:06 16,7 C 6,3 C 48 % 88 % 1020,5 hPa 0,0 l/m 0,0 km/h (0 Bft)
22.02.2009 21:08 16,7 C 6,3 C 48 % 88 % 1020,5 hPa 0,0 l/m 0,0 km/h (0 Bft)
22.02.2009 21:10 16,7 C 6,3 C 48 % 88 % 1020,5 hPa 0,0 l/m 0,0 km/h (0 Bft)
22.02.2009 21:12 16,7 C 6,3 C 48 % 88 % 1020,5 hPa 0,0 l/m 0,0 km/h (0 Bft)
22.02.2009 21:14 16,7 C 6,3 C 48 % 88 % 1020,5 hPa 0,0 l/m 2,7 km/h (1 Bft)
22.02.2009 21:16 16,7 C 6,3 C 48 % 88 % 1020,5 hPa 0,0 l/m 2,7 km/h (1 Bft)
22.02.2009 21:18 16,7 C 6,3 C 48 % 88 % 1020,5 hPa 0,0 l/m 0,0 km/h (0 Bft)
22.02.2009 21:20 16,7 C 6,3 C 48 % 88 % 1020,5 hPa 0,0 l/m 3,2 km/h (1 Bft)
22.02.2009 21:22 16,7 C 6,2 C 48 % 88 % 1020,5 hPa 0,0 l/m 0,0 km/h (0 Bft)
22.02.2009 21:24 16,7 C 6,2 C 48 % 88 % 1020,5 hPa 0,0 l/m 0,0 km/h (0 Bft)
22.02.2009 21:26 16,7 C 6,2 C 48 % 88 % 1020,5 hPa 0,0 l/m 23,1 km/h (4 Bft)
22.02.2009 21:28 16,7 C 6,2 C 48 % 88 % 1020,5 hPa 0,0 l/m 0,0 km/h (0 Bft)
22.02.2009 21:30 16,6 C 6,2 C 48 % 88 % 1020,5 hPa 0,0 l/m 0,0 km/h (0 Bft)
22.02.2009 21:32 16,7 C 6,2 C 48 % 88 % 1020,5 hPa 0,0 l/m 0,0 km/h (0 Bft)
22.02.2009 21:34 16,7 C 6,2 C 48 % 88 % 1020,5 hPa 0,0 l/m 0,0 km/h (0 Bft)
22.02.2009 21:36 16,6 C 6,1 C 48 % 88 % 1020,5 hPa 0,0 l/m 0,5 km/h (0 Bft)
22.02.2009 21:38 16,7 C 6,1 C 48 % 88 % 1020,5 hPa 0,0 l/m 0,0 km/h (0 Bft)
22.02.2009 21:40 16,6 C 6,1 C 48 % 88 % 1020,5 hPa 0,0 l/m 0,0 km/h (0 Bft)
22.02.2009 21:42 16,6 C 6,1 C 48 % 88 % 1020,5 hPa 0,0 l/m 4,3 km/h (1 Bft)
22.02.2009 21:44 16,6 C 6,1 C 48 % 88 % 1020,5 hPa 0,0 l/m 0,0 km/h (0 Bft)
22.02.2009 21:46 16,6 C 6,1 C 48 % 88 % 1020,5 hPa 0,0 l/m 0,0 km/h (0 Bft)
22.02.2009 21:48 16,6 C 6,1 C 48 % 88 % 1020,5 hPa 0,0 l/m 0,0 km/h (0 Bft)
22.02.2009 21:50 16,6 C 6,1 C 48 % 88 % 1020,5 hPa 0,0 l/m 0,0 km/h (0 Bft)
22.02.2009 21:52 16,7 C 6,1 C 48 % 88 % 1020,5 hPa 0,0 l/m 0,0 km/h (0 Bft)
22.02.2009 21:54 16,6 C 6,1 C 48 % 88 % 1020,5 hPa 0,0 l/m 0,0 km/h (0 Bft)
22.02.2009 21:56 16,7 C 6,1 C 48 % 88 % 1020,5 hPa 0,0 l/m 0,0 km/h (0 Bft)
22.02.2009 21:58 16,6 C 6,1 C 48 % 88 % 1020,5 hPa 0,0 l/m 5,4 km/h (1 Bft)
22.02.2009 22:00 16,6 C 6,1 C 48 % 88 % 1020,5 hPa 0,0 l/m 5,9 km/h (2 Bft)
22.02.2009 22:02 16,6 C 6,1 C 48 % 88 % 1020,5 hPa 0,0 l/m 0,0 km/h (0 Bft)
22.02.2009 22:04 16,6 C 6,1 C 48 % 88 % 1020,5 hPa 0,0 l/m 5,4 km/h (1 Bft)
22.02.2009 22:06 16,6 C 6,1 C 48 % 88 % 1020,5 hPa 0,0 l/m 0,0 km/h (0 Bft)
22.02.2009 22:08 16,6 C 6,1 C 48 % 88 % 1020,5 hPa 0,0 l/m 0,0 km/h (0 Bft)
22.02.2009 22:10 16,6 C 6,1 C 48 % 88 % 1020,5 hPa 0,0 l/m 0,0 km/h (0 Bft)
22.02.2009 22:12 16,6 C 6,1 C 48 % 88 % 1020,5 hPa 0,0 l/m 19,4 km/h (3 Bft)
22.02.2009 22:14 16,6 C 6,1 C 48 % 88 % 1020,5 hPa 0,0 l/m 0,0 km/h (0 Bft)
22.02.2009 22:16 16,6 C 6,1 C 48 % 88 % 1020,5 hPa 0,0 l/m 0,0 km/h (0 Bft)
22.02.2009 22:18 16,6 C 6,1 C 48 % 88 % 1020,5 hPa 0,0 l/m 0,0 km/h (0 Bft)
22.02.2009 22:20 16,6 C 6,1 C 48 % 88 % 1020,5 hPa 0,0 l/m 2,7 km/h (1 Bft)
22.02.2009 22:22 16,6 C 6,0 C 48 % 88 % 1020,5 hPa 0,0 l/m 14,5 km/h (3 Bft)
22.02.2009 22:24 16,6 C 5,9 C 48 % 88 % 1020,5 hPa 0,0 l/m 13,5 km/h (3 Bft)
22.02.2009 22:26 16,6 C 5,9 C 48 % 88 % 1020,5 hPa 0,0 l/m 0,0 km/h (0 Bft)
22.02.2009 22:28 16,6 C 5,9 C 48 % 88 % 1020,5 hPa 0,0 l/m 0,0 km/h (0 Bft)
22.02.2009 22:30 16,6 C 5,9 C 48 % 88 % 1020,5 hPa 0,0 l/m 0,0 km/h (0 Bft)
22.02.2009 22:32 16,6 C 5,9 C 48 % 88 % 1020,5 hPa 0,0 l/m 0,0 km/h (0 Bft)
22.02.2009 22:34 16,6 C 5,9 C 48 % 88 % 1020,5 hPa 0,0 l/m 0,0 km/h (0 Bft)
22.02.2009 22:36 16,6 C 5,9 C 48 % 88 % 1020,5 hPa 0,0 l/m 0,0 km/h (0 Bft)
22.02.2009 22:38 16,6 C 5,9 C 48 % 88 % 1020,5 hPa 0,0 l/m 0,0 km/h (0 Bft)
22.02.2009 22:40 16,5 C 5,9 C 48 % 88 % 1020,5 hPa 0,0 l/m 0,0 km/h (0 Bft)
22.02.2009 22:42 16,6 C 5,9 C 48 % 88 % 1020,5 hPa 0,0 l/m 0,0 km/h (0 Bft)
22.02.2009 22:44 16,6 C 5,9 C 48 % 88 % 1020,5 hPa 0,0 l/m 0,0 km/h (0 Bft)
22.02.2009 22:46 16,6 C 5,9 C 48 % 88 % 1020,5 hPa 0,0 l/m 0,0 km/h (0 Bft)
22.02.2009 22:48 16,5 C 5,9 C 48 % 88 % 1020,5 hPa 0,0 l/m 0,0 km/h (0 Bft)
22.02.2009 22:50 16,5 C 5,9 C 48 % 88 % 1020,5 hPa 0,0 l/m 2,7 km/h (1 Bft)
22.02.2009 22:52 16,5 C 5,9 C 48 % 88 % 1020,5 hPa 0,0 l/m 0,0 km/h (0 Bft)
22.02.2009 22:54 16,5 C 5,9 C 48 % 88 % 1020,5 hPa 0,0 l/m 0,0 km/h (0 Bft)
22.02.2009 22:56 16,5 C 5,9 C 48 % 88 % 1020,5 hPa 0,0 l/m 0,0 km/h (0 Bft)
22.02.2009 22:58 16,5 C 5,9 C 48 % 88 % 1021,5 hPa 0,0 l/m 0,0 km/h (0 Bft)
22.02.2009 23:00 16,5 C 5,9 C 48 % 88 % 1020,5 hPa 0,0 l/m 0,0 km/h (0 Bft)
22.02.2009 23:02 16,5 C 5,9 C 48 % 88 % 1020,5 hPa 0,0 l/m 0,0 km/h (0 Bft)
22.02.2009 23:04 16,5 C 5,9 C 47 % 88 % 1020,5 hPa 0,0 l/m 0,0 km/h (0 Bft)
22.02.2009 23:06 16,5 C 5,9 C 47 % 88 % 1020,5 hPa 0,0 l/m 4,3 km/h (1 Bft)
22.02.2009 23:08 16,5 C 5,8 C 47 % 88 % 1020,5 hPa 0,0 l/m 13,5 km/h (3 Bft)
22.02.2009 23:10 16,5 C 5,8 C 47 % 87 % 1020,5 hPa 0,0 l/m 0,0 km/h (0 Bft)
22.02.2009 23:12 16,5 C 5,8 C 47 % 87 % 1020,5 hPa 0,0 l/m 0,0 km/h (0 Bft)
22.02.2009 23:14 16,5 C 5,8 C 47 % 87 % 1020,5 hPa 0,0 l/m 0,0 km/h (0 Bft)
22.02.2009 23:16 16,5 C 5,8 C 47 % 87 % 1020,5 hPa 0,0 l/m 0,0 km/h (0 Bft)
22.02.2009 23:18 16,4 C 5,8 C 47 % 87 % 1020,5 hPa 0,0 l/m 0,0 km/h (0 Bft)
22.02.2009 23:20 16,4 C 5,8 C 47 % 87 % 1021,5 hPa 0,0 l/m 0,0 km/h (0 Bft)
22.02.2009 23:22 16,4 C 5,8 C 47 % 87 % 1021,5 hPa 0,0 l/m 0,0 km/h (0 Bft)
22.02.2009 23:24 16,4 C 5,8 C 47 % 87 % 1020,5 hPa 0,0 l/m 0,0 km/h (0 Bft)
22.02.2009 23:26 16,4 C 5,8 C 47 % 87 % 1020,5 hPa 0,0 l/m 0,0 km/h (0 Bft)
22.02.2009 23:28 16,4 C 5,8 C 47 % 87 % 1020,5 hPa 0,0 l/m 9,1 km/h (2 Bft)
22.02.2009 23:30 16,4 C 5,8 C 47 % 87 % 1020,5 hPa 0,0 l/m 0,0 km/h (0 Bft)
22.02.2009 23:32 16,4 C 5,8 C 47 % 87 % 1020,5 hPa 0,0 l/m 0,0 km/h (0 Bft)
22.02.2009 23:34 16,4 C 5,8 C 47 % 87 % 1020,5 hPa 0,0 l/m 0,0 km/h (0 Bft)
22.02.2009 23:36 16,4 C 5,7 C 47 % 87 % 1020,5 hPa 0,0 l/m 0,0 km/h (0 Bft)
22.02.2009 23:38 16,4 C 5,7 C 47 % 87 % 1020,5 hPa 0,0 l/m 3,8 km/h (1 Bft)
22.02.2009 23:40 16,4 C 5,7 C 47 % 87 % 1020,5 hPa 0,0 l/m 0,0 km/h (0 Bft)
22.02.2009 23:42 16,4 C 5,6 C 47 % 86 % 1020,5 hPa 0,0 l/m 0,0 km/h (0 Bft)
22.02.2009 23:44 16,4 C 5,6 C 47 % 86 % 1020,5 hPa 0,0 l/m 0,0 km/h (0 Bft)
22.02.2009 23:46 16,4 C 5,6 C 47 % 86 % 1020,5 hPa 0,0 l/m 0,0 km/h (0 Bft)
22.02.2009 23:48 16,4 C 5,6 C 47 % 86 % 1020,5 hPa 0,0 l/m 0,0 km/h (0 Bft)
22.02.2009 23:50 16,4 C 5,6 C 47 % 86 % 1020,5 hPa 0,0 l/m 0,0 km/h (0 Bft)
22.02.2009 23:52 16,4 C 5,6 C 47 % 86 % 1020,5 hPa 0,0 l/m 11,3 km/h (2 Bft)
22.02.2009 23:54 16,4 C 5,6 C 47 % 86 % 1020,5 hPa 0,0 l/m 0,0 km/h (0 Bft)
22.02.2009 23:56 16,4 C 5,6 C 47 % 86 % 1020,5 hPa 0,0 l/m 0,0 km/h (0 Bft)
22.02.2009 23:58 16,4 C 5,6 C 47 % 86 % 1020,5 hPa 0,0 l/m 0,0 km/h (0 Bft)
_ Min-Zeit 04:46 02:00 00:00 00:00 17:20 - 00:00
Minimum _ 16,3 C 5,3 C 45 % 84 % 1019,5 hPa - 0,0 km/h (0 Bft)
_ Max-Zeit 20:18 16:30 13:12 13:20 00:04 01:30 21:26
Maximum _ 16,7 C 7,8 C 48 % 90 % 1027,5 hPa 0,5 l/m 23,1 km/h
N-NW (4 Bft)
Durchschnitt _ 16,4 C 6,3 C 47 % 88 % 1022,0 hPa #1,6 l/m 1,9 km/h (1 Bft)
© 2012 W. Hausmann